<?xml version="1.0" encoding="UTF-8" standalone="no" ?>
<gpx xmlns="http://www.topografix.com/GPX/1/1" xmlns:xsi="http://www.w3.org/2001/XMLSchema-instance" xsi:schemaLocation="http://www.topografix.com/GPX/1/1 http://www.topografix.com/GPX/1/1/gpx.xsd" version="1.1" creator="VisuGPX - https://www.visugpx.com">
  <metadata>
    <name>pizançon</name>
    <desc><![CDATA[Jolie Découverte]]></desc>
  </metadata>
  <trk>
    <name><![CDATA[Pizançon]]></name>
    <cmt><![CDATA[FBFC Rallye abandonné pour cause de pluie]]></cmt>
    <trkseg>
      <trkpt lat="45.11586" lon="4.96468">
        <ele>239.19200134277</ele>
        <time>2010-10-30T07:28:39Z</time>
      </trkpt>
      <trkpt lat="45.11586" lon="4.96469">
        <ele>239.21600341797</ele>
        <time>2010-10-30T07:28:40Z</time>
      </trkpt>
      <trkpt lat="45.11586" lon="4.96478">
        <ele>238.36000061035</ele>
        <time>2010-10-30T07:28:49Z</time>
      </trkpt>
      <trkpt lat="45.11592" lon="4.96501">
        <ele>238.32800292969</ele>
        <time>2010-10-30T07:28:53Z</time>
      </trkpt>
      <trkpt lat="45.11599" lon="4.96517">
        <ele>238.24699401856</ele>
        <time>2010-10-30T07:28:56Z</time>
      </trkpt>
      <trkpt lat="45.11604" lon="4.96558">
        <ele>237.52900695801</ele>
        <time>2010-10-30T07:28:59Z</time>
      </trkpt>
      <trkpt lat="45.11628" lon="4.96628">
        <ele>237.15899658203</ele>
        <time>2010-10-30T07:29:07Z</time>
      </trkpt>
      <trkpt lat="45.11636" lon="4.96647">
        <ele>237.48399353027</ele>
        <time>2010-10-30T07:29:09Z</time>
      </trkpt>
      <trkpt lat="45.11642" lon="4.96664">
        <ele>237.31199645996</ele>
        <time>2010-10-30T07:29:11Z</time>
      </trkpt>
      <trkpt lat="45.11668" lon="4.96725">
        <ele>237.90100097656</ele>
        <time>2010-10-30T07:29:18Z</time>
      </trkpt>
      <trkpt lat="45.1169" lon="4.96766">
        <ele>238.91600036621</ele>
        <time>2010-10-30T07:29:23Z</time>
      </trkpt>
      <trkpt lat="45.11728" lon="4.96829">
        <ele>239.38400268555</ele>
        <time>2010-10-30T07:29:31Z</time>
      </trkpt>
      <trkpt lat="45.11742" lon="4.96865">
        <ele>238.92900085449</ele>
        <time>2010-10-30T07:29:35Z</time>
      </trkpt>
      <trkpt lat="45.11753" lon="4.96878">
        <ele>239.08200073242</ele>
        <time>2010-10-30T07:29:37Z</time>
      </trkpt>
      <trkpt lat="45.11792" lon="4.9693">
        <ele>239.34700012207</ele>
        <time>2010-10-30T07:29:44Z</time>
      </trkpt>
      <trkpt lat="45.11844" lon="4.97007">
        <ele>239.68699645996</ele>
        <time>2010-10-30T07:29:54Z</time>
      </trkpt>
      <trkpt lat="45.11871" lon="4.97044">
        <ele>239.88299560547</ele>
        <time>2010-10-30T07:29:59Z</time>
      </trkpt>
      <trkpt lat="45.11884" lon="4.97082">
        <ele>239.56599426269</ele>
        <time>2010-10-30T07:30:03Z</time>
      </trkpt>
      <trkpt lat="45.11882" lon="4.97105">
        <ele>239.16400146484</ele>
        <time>2010-10-30T07:30:05Z</time>
      </trkpt>
      <trkpt lat="45.11877" lon="4.97129">
        <ele>238.55700683594</ele>
        <time>2010-10-30T07:30:07Z</time>
      </trkpt>
      <trkpt lat="45.11883" lon="4.97192">
        <ele>237.68200683594</ele>
        <time>2010-10-30T07:30:12Z</time>
      </trkpt>
      <trkpt lat="45.11909" lon="4.97346">
        <ele>237.23300170898</ele>
        <time>2010-10-30T07:30:24Z</time>
      </trkpt>
      <trkpt lat="45.11924" lon="4.97431">
        <ele>237.35699462891</ele>
        <time>2010-10-30T07:30:31Z</time>
      </trkpt>
      <trkpt lat="45.11941" lon="4.97532">
        <ele>238.57000732422</ele>
        <time>2010-10-30T07:30:40Z</time>
      </trkpt>
      <trkpt lat="45.11957" lon="4.97627">
        <ele>239.95199584961</ele>
        <time>2010-10-30T07:30:49Z</time>
      </trkpt>
      <trkpt lat="45.11972" lon="4.97714">
        <ele>239.68200683594</ele>
        <time>2010-10-30T07:30:57Z</time>
      </trkpt>
      <trkpt lat="45.11992" lon="4.97823">
        <ele>240.49600219727</ele>
        <time>2010-10-30T07:31:07Z</time>
      </trkpt>
      <trkpt lat="45.12008" lon="4.97915">
        <ele>241.48399353027</ele>
        <time>2010-10-30T07:31:16Z</time>
      </trkpt>
      <trkpt lat="45.12009" lon="4.97923">
        <ele>241.75399780273</ele>
        <time>2010-10-30T07:31:17Z</time>
      </trkpt>
      <trkpt lat="45.12006" lon="4.97938">
        <ele>241.86199951172</ele>
        <time>2010-10-30T07:31:20Z</time>
      </trkpt>
      <trkpt lat="45.11996" lon="4.97938">
        <ele>241.71899414062</ele>
        <time>2010-10-30T07:31:22Z</time>
      </trkpt>
      <trkpt lat="45.11953" lon="4.97929">
        <ele>240.78399658203</ele>
        <time>2010-10-30T07:31:29Z</time>
      </trkpt>
      <trkpt lat="45.11908" lon="4.97922">
        <ele>240.77900695801</ele>
        <time>2010-10-30T07:31:36Z</time>
      </trkpt>
      <trkpt lat="45.11899" lon="4.97909">
        <ele>240.94999694824</ele>
        <time>2010-10-30T07:31:40Z</time>
      </trkpt>
      <trkpt lat="45.11899" lon="4.97906">
        <ele>241.17199707031</ele>
        <time>2010-10-30T07:31:43Z</time>
      </trkpt>
      <trkpt lat="45.11896" lon="4.97912">
        <ele>241.27000427246</ele>
        <time>2010-10-30T07:31:49Z</time>
      </trkpt>
      <trkpt lat="45.11896" lon="4.97912">
        <ele>241.31500244141</ele>
        <time>2010-10-30T07:31:50Z</time>
      </trkpt>
      <trkpt lat="45.11897" lon="4.97918">
        <ele>241.87300109863</ele>
        <time>2010-10-30T07:32:30Z</time>
      </trkpt>
      <trkpt lat="45.11904" lon="4.97923">
        <ele>241.44500732422</ele>
        <time>2010-10-30T07:32:35Z</time>
      </trkpt>
      <trkpt lat="45.11919" lon="4.97924">
        <ele>240.98699951172</ele>
        <time>2010-10-30T07:32:38Z</time>
      </trkpt>
      <trkpt lat="45.11966" lon="4.9793">
        <ele>241.43099975586</ele>
        <time>2010-10-30T07:32:45Z</time>
      </trkpt>
      <trkpt lat="45.11985" lon="4.97933">
        <ele>241.33399963379</ele>
        <time>2010-10-30T07:32:48Z</time>
      </trkpt>
      <trkpt lat="45.12013" lon="4.97942">
        <ele>242.16299438477</ele>
        <time>2010-10-30T07:32:53Z</time>
      </trkpt>
      <trkpt lat="45.1202" lon="4.97964">
        <ele>242.18200683594</ele>
        <time>2010-10-30T07:32:56Z</time>
      </trkpt>
      <trkpt lat="45.12041" lon="4.98043">
        <ele>243.21499633789</ele>
        <time>2010-10-30T07:33:05Z</time>
      </trkpt>
      <trkpt lat="45.12057" lon="4.98108">
        <ele>243.7799987793</ele>
        <time>2010-10-30T07:33:12Z</time>
      </trkpt>
      <trkpt lat="45.12066" lon="4.98164">
        <ele>244.21899414062</ele>
        <time>2010-10-30T07:33:18Z</time>
      </trkpt>
      <trkpt lat="45.12067" lon="4.98174">
        <ele>244.73699951172</ele>
        <time>2010-10-30T07:33:19Z</time>
      </trkpt>
      <trkpt lat="45.12067" lon="4.98255">
        <ele>244.96699523926</ele>
        <time>2010-10-30T07:33:27Z</time>
      </trkpt>
      <trkpt lat="45.12058" lon="4.98327">
        <ele>245.19099426269</ele>
        <time>2010-10-30T07:33:34Z</time>
      </trkpt>
      <trkpt lat="45.12045" lon="4.98383">
        <ele>246.48599243164</ele>
        <time>2010-10-30T07:33:40Z</time>
      </trkpt>
      <trkpt lat="45.12037" lon="4.98399">
        <ele>246.9640045166</ele>
        <time>2010-10-30T07:33:42Z</time>
      </trkpt>
      <trkpt lat="45.12029" lon="4.98435">
        <ele>246.83500671387</ele>
        <time>2010-10-30T07:33:46Z</time>
      </trkpt>
      <trkpt lat="45.12028" lon="4.98445">
        <ele>246.55200195312</ele>
        <time>2010-10-30T07:33:47Z</time>
      </trkpt>
      <trkpt lat="45.1202" lon="4.98506">
        <ele>246.29299926758</ele>
        <time>2010-10-30T07:33:53Z</time>
      </trkpt>
      <trkpt lat="45.12019" lon="4.98613">
        <ele>246.52000427246</ele>
        <time>2010-10-30T07:34:03Z</time>
      </trkpt>
      <trkpt lat="45.12028" lon="4.98687">
        <ele>246.57600402832</ele>
        <time>2010-10-30T07:34:10Z</time>
      </trkpt>
      <trkpt lat="45.12046" lon="4.9877">
        <ele>246.375</ele>
        <time>2010-10-30T07:34:18Z</time>
      </trkpt>
      <trkpt lat="45.12071" lon="4.98847">
        <ele>246.95399475098</ele>
        <time>2010-10-30T07:34:26Z</time>
      </trkpt>
      <trkpt lat="45.12104" lon="4.98916">
        <ele>247.31599426269</ele>
        <time>2010-10-30T07:34:34Z</time>
      </trkpt>
      <trkpt lat="45.12142" lon="4.98977">
        <ele>249.02299499512</ele>
        <time>2010-10-30T07:34:42Z</time>
      </trkpt>
      <trkpt lat="45.12177" lon="4.99017">
        <ele>251.12100219727</ele>
        <time>2010-10-30T07:34:49Z</time>
      </trkpt>
      <trkpt lat="45.12204" lon="4.99047">
        <ele>252.81399536133</ele>
        <time>2010-10-30T07:34:55Z</time>
      </trkpt>
      <trkpt lat="45.12217" lon="4.99073">
        <ele>253.19500732422</ele>
        <time>2010-10-30T07:34:59Z</time>
      </trkpt>
      <trkpt lat="45.12217" lon="4.99099">
        <ele>252.88299560547</ele>
        <time>2010-10-30T07:35:02Z</time>
      </trkpt>
      <trkpt lat="45.12214" lon="4.99108">
        <ele>252.53999328613</ele>
        <time>2010-10-30T07:35:03Z</time>
      </trkpt>
      <trkpt lat="45.12192" lon="4.99192">
        <ele>251.14999389648</ele>
        <time>2010-10-30T07:35:11Z</time>
      </trkpt>
      <trkpt lat="45.12171" lon="4.9927">
        <ele>250.49699401856</ele>
        <time>2010-10-30T07:35:18Z</time>
      </trkpt>
      <trkpt lat="45.12149" lon="4.99352">
        <ele>250.79299926758</ele>
        <time>2010-10-30T07:35:25Z</time>
      </trkpt>
      <trkpt lat="45.12123" lon="4.99439">
        <ele>250.42100524902</ele>
        <time>2010-10-30T07:35:33Z</time>
      </trkpt>
      <trkpt lat="45.12091" lon="4.99503">
        <ele>252.09599304199</ele>
        <time>2010-10-30T07:35:40Z</time>
      </trkpt>
      <trkpt lat="45.12054" lon="4.99567">
        <ele>253.17399597168</ele>
        <time>2010-10-30T07:35:48Z</time>
      </trkpt>
      <trkpt lat="45.12008" lon="4.99651">
        <ele>252.69799804688</ele>
        <time>2010-10-30T07:35:58Z</time>
      </trkpt>
      <trkpt lat="45.11959" lon="4.99738">
        <ele>252.79899597168</ele>
        <time>2010-10-30T07:36:08Z</time>
      </trkpt>
      <trkpt lat="45.11915" lon="4.998">
        <ele>253.84800720215</ele>
        <time>2010-10-30T07:36:16Z</time>
      </trkpt>
      <trkpt lat="45.11883" lon="4.99832">
        <ele>255.67900085449</ele>
        <time>2010-10-30T07:36:22Z</time>
      </trkpt>
      <trkpt lat="45.11853" lon="4.99852">
        <ele>257.48098754883</ele>
        <time>2010-10-30T07:36:28Z</time>
      </trkpt>
      <trkpt lat="45.11818" lon="4.99867">
        <ele>259.63198852539</ele>
        <time>2010-10-30T07:36:36Z</time>
      </trkpt>
      <trkpt lat="45.11783" lon="4.9988">
        <ele>262.23400878906</ele>
        <time>2010-10-30T07:36:44Z</time>
      </trkpt>
      <trkpt lat="45.1177" lon="4.99886">
        <ele>262.77301025391</ele>
        <time>2010-10-30T07:36:47Z</time>
      </trkpt>
      <trkpt lat="45.11727" lon="4.99902">
        <ele>265.98599243164</ele>
        <time>2010-10-30T07:36:57Z</time>
      </trkpt>
      <trkpt lat="45.1169" lon="4.99919">
        <ele>268.44900512695</ele>
        <time>2010-10-30T07:37:06Z</time>
      </trkpt>
      <trkpt lat="45.11682" lon="4.99924">
        <ele>268.92700195312</ele>
        <time>2010-10-30T07:37:08Z</time>
      </trkpt>
      <trkpt lat="45.11646" lon="4.99955">
        <ele>271.82598876953</ele>
        <time>2010-10-30T07:37:18Z</time>
      </trkpt>
      <trkpt lat="45.11629" lon="4.99975">
        <ele>272.93301391602</ele>
        <time>2010-10-30T07:37:23Z</time>
      </trkpt>
      <trkpt lat="45.11593" lon="5.00029">
        <ele>275.56500244141</ele>
        <time>2010-10-30T07:37:34Z</time>
      </trkpt>
      <trkpt lat="45.11552" lon="5.00079">
        <ele>275.8450012207</ele>
        <time>2010-10-30T07:37:44Z</time>
      </trkpt>
      <trkpt lat="45.11507" lon="5.00123">
        <ele>275.53298950195</ele>
        <time>2010-10-30T07:37:53Z</time>
      </trkpt>
      <trkpt lat="45.11452" lon="5.00175">
        <ele>275.53100585938</ele>
        <time>2010-10-30T07:38:03Z</time>
      </trkpt>
      <trkpt lat="45.11377" lon="5.00245">
        <ele>275.00698852539</ele>
        <time>2010-10-30T07:38:16Z</time>
      </trkpt>
      <trkpt lat="45.11324" lon="5.00291">
        <ele>276.08801269531</ele>
        <time>2010-10-30T07:38:25Z</time>
      </trkpt>
      <trkpt lat="45.1127" lon="5.00328">
        <ele>278.0119934082</ele>
        <time>2010-10-30T07:38:34Z</time>
      </trkpt>
      <trkpt lat="45.11226" lon="5.00351">
        <ele>280.81201171875</ele>
        <time>2010-10-30T07:38:42Z</time>
      </trkpt>
      <trkpt lat="45.11181" lon="5.00374">
        <ele>282.72601318359</ele>
        <time>2010-10-30T07:38:51Z</time>
      </trkpt>
      <trkpt lat="45.11121" lon="5.00405">
        <ele>285.5530090332</ele>
        <time>2010-10-30T07:39:04Z</time>
      </trkpt>
      <trkpt lat="45.11066" lon="5.00438">
        <ele>289.5</ele>
        <time>2010-10-30T07:39:17Z</time>
      </trkpt>
      <trkpt lat="45.11014" lon="5.00473">
        <ele>292.45700073242</ele>
        <time>2010-10-30T07:39:29Z</time>
      </trkpt>
      <trkpt lat="45.10971" lon="5.00507">
        <ele>294.45999145508</ele>
        <time>2010-10-30T07:39:39Z</time>
      </trkpt>
      <trkpt lat="45.10934" lon="5.00534">
        <ele>294.89300537109</ele>
        <time>2010-10-30T07:39:46Z</time>
      </trkpt>
      <trkpt lat="45.10889" lon="5.00555">
        <ele>293.34799194336</ele>
        <time>2010-10-30T07:39:53Z</time>
      </trkpt>
      <trkpt lat="45.10841" lon="5.00567">
        <ele>290.0530090332</ele>
        <time>2010-10-30T07:39:59Z</time>
      </trkpt>
      <trkpt lat="45.10782" lon="5.00575">
        <ele>286.67599487305</ele>
        <time>2010-10-30T07:40:05Z</time>
      </trkpt>
      <trkpt lat="45.10713" lon="5.00587">
        <ele>281.6369934082</ele>
        <time>2010-10-30T07:40:11Z</time>
      </trkpt>
      <trkpt lat="45.10653" lon="5.00609">
        <ele>278.26800537109</ele>
        <time>2010-10-30T07:40:16Z</time>
      </trkpt>
      <trkpt lat="45.10596" lon="5.00648">
        <ele>275.06500244141</ele>
        <time>2010-10-30T07:40:21Z</time>
      </trkpt>
      <trkpt lat="45.10562" lon="5.00676">
        <ele>273.32400512695</ele>
        <time>2010-10-30T07:40:24Z</time>
      </trkpt>
      <trkpt lat="45.10462" lon="5.00757">
        <ele>269.20498657227</ele>
        <time>2010-10-30T07:40:33Z</time>
      </trkpt>
      <trkpt lat="45.10394" lon="5.00811">
        <ele>269.36099243164</ele>
        <time>2010-10-30T07:40:40Z</time>
      </trkpt>
      <trkpt lat="45.10344" lon="5.0085">
        <ele>269.82000732422</ele>
        <time>2010-10-30T07:40:46Z</time>
      </trkpt>
      <trkpt lat="45.10301" lon="5.00885">
        <ele>270.90399169922</ele>
        <time>2010-10-30T07:40:52Z</time>
      </trkpt>
      <trkpt lat="45.10249" lon="5.00929">
        <ele>271.75698852539</ele>
        <time>2010-10-30T07:41:00Z</time>
      </trkpt>
      <trkpt lat="45.10208" lon="5.00974">
        <ele>272.41299438477</ele>
        <time>2010-10-30T07:41:07Z</time>
      </trkpt>
      <trkpt lat="45.10162" lon="5.01044">
        <ele>273.99301147461</ele>
        <time>2010-10-30T07:41:16Z</time>
      </trkpt>
      <trkpt lat="45.10115" lon="5.01121">
        <ele>275.63101196289</ele>
        <time>2010-10-30T07:41:26Z</time>
      </trkpt>
      <trkpt lat="45.10095" lon="5.01176">
        <ele>275.64898681641</ele>
        <time>2010-10-30T07:41:32Z</time>
      </trkpt>
      <trkpt lat="45.10081" lon="5.01247">
        <ele>276.1960144043</ele>
        <time>2010-10-30T07:41:39Z</time>
      </trkpt>
      <trkpt lat="45.10074" lon="5.01336">
        <ele>275.60400390625</ele>
        <time>2010-10-30T07:41:47Z</time>
      </trkpt>
      <trkpt lat="45.10065" lon="5.01445">
        <ele>275.37701416016</ele>
        <time>2010-10-30T07:41:56Z</time>
      </trkpt>
      <trkpt lat="45.10056" lon="5.01562">
        <ele>274.84100341797</ele>
        <time>2010-10-30T07:42:05Z</time>
      </trkpt>
      <trkpt lat="45.10042" lon="5.01667">
        <ele>274.48400878906</ele>
        <time>2010-10-30T07:42:13Z</time>
      </trkpt>
      <trkpt lat="45.10016" lon="5.01751">
        <ele>274.60800170898</ele>
        <time>2010-10-30T07:42:20Z</time>
      </trkpt>
      <trkpt lat="45.09987" lon="5.01835">
        <ele>277.12100219727</ele>
        <time>2010-10-30T07:42:28Z</time>
      </trkpt>
      <trkpt lat="45.09942" lon="5.01963">
        <ele>280.04400634766</ele>
        <time>2010-10-30T07:42:40Z</time>
      </trkpt>
      <trkpt lat="45.09911" lon="5.02053">
        <ele>282.65399169922</ele>
        <time>2010-10-30T07:42:49Z</time>
      </trkpt>
      <trkpt lat="45.09901" lon="5.02083">
        <ele>283.9460144043</ele>
        <time>2010-10-30T07:42:52Z</time>
      </trkpt>
      <trkpt lat="45.09884" lon="5.02129">
        <ele>286.19799804688</ele>
        <time>2010-10-30T07:42:57Z</time>
      </trkpt>
      <trkpt lat="45.09868" lon="5.02176">
        <ele>288.62100219727</ele>
        <time>2010-10-30T07:43:03Z</time>
      </trkpt>
      <trkpt lat="45.09861" lon="5.02196">
        <ele>289.87799072266</ele>
        <time>2010-10-30T07:43:06Z</time>
      </trkpt>
      <trkpt lat="45.09849" lon="5.02235">
        <ele>292.01599121094</ele>
        <time>2010-10-30T07:43:13Z</time>
      </trkpt>
      <trkpt lat="45.09845" lon="5.02273">
        <ele>293.83898925781</ele>
        <time>2010-10-30T07:43:20Z</time>
      </trkpt>
      <trkpt lat="45.09845" lon="5.02277">
        <ele>294.20599365234</ele>
        <time>2010-10-30T07:43:23Z</time>
      </trkpt>
      <trkpt lat="45.09849" lon="5.02281">
        <ele>294.57400512695</ele>
        <time>2010-10-30T07:44:57Z</time>
      </trkpt>
      <trkpt lat="45.09851" lon="5.02289">
        <ele>294.79000854492</ele>
        <time>2010-10-30T07:44:59Z</time>
      </trkpt>
      <trkpt lat="45.09855" lon="5.02307">
        <ele>295.29501342773</ele>
        <time>2010-10-30T07:45:02Z</time>
      </trkpt>
      <trkpt lat="45.09865" lon="5.02349">
        <ele>296.62399291992</ele>
        <time>2010-10-30T07:45:08Z</time>
      </trkpt>
      <trkpt lat="45.09877" lon="5.02397">
        <ele>297.60198974609</ele>
        <time>2010-10-30T07:45:14Z</time>
      </trkpt>
      <trkpt lat="45.09894" lon="5.02455">
        <ele>294.90899658203</ele>
        <time>2010-10-30T07:45:20Z</time>
      </trkpt>
      <trkpt lat="45.09909" lon="5.02503">
        <ele>292.24798583984</ele>
        <time>2010-10-30T07:45:24Z</time>
      </trkpt>
      <trkpt lat="45.09947" lon="5.02558">
        <ele>288.18499755859</ele>
        <time>2010-10-30T07:45:29Z</time>
      </trkpt>
      <trkpt lat="45.09979" lon="5.02618">
        <ele>284.85000610352</ele>
        <time>2010-10-30T07:45:33Z</time>
      </trkpt>
      <trkpt lat="45.09996" lon="5.02666">
        <ele>282.84698486328</ele>
        <time>2010-10-30T07:45:36Z</time>
      </trkpt>
      <trkpt lat="45.10027" lon="5.02716">
        <ele>279.03399658203</ele>
        <time>2010-10-30T07:45:40Z</time>
      </trkpt>
      <trkpt lat="45.10035" lon="5.0273">
        <ele>278.17001342773</ele>
        <time>2010-10-30T07:45:41Z</time>
      </trkpt>
      <trkpt lat="45.10054" lon="5.02779">
        <ele>274.58499145508</ele>
        <time>2010-10-30T07:45:44Z</time>
      </trkpt>
      <trkpt lat="45.10048" lon="5.02815">
        <ele>272.04299926758</ele>
        <time>2010-10-30T07:45:46Z</time>
      </trkpt>
      <trkpt lat="45.10022" lon="5.02834">
        <ele>268.98300170898</ele>
        <time>2010-10-30T07:45:48Z</time>
      </trkpt>
      <trkpt lat="45.09993" lon="5.02835">
        <ele>266.97198486328</ele>
        <time>2010-10-30T07:45:50Z</time>
      </trkpt>
      <trkpt lat="45.09893" lon="5.02824">
        <ele>259.92001342773</ele>
        <time>2010-10-30T07:45:57Z</time>
      </trkpt>
      <trkpt lat="45.09835" lon="5.02827">
        <ele>257.09201049805</ele>
        <time>2010-10-30T07:46:01Z</time>
      </trkpt>
      <trkpt lat="45.09821" lon="5.02831">
        <ele>256.85998535156</ele>
        <time>2010-10-30T07:46:02Z</time>
      </trkpt>
      <trkpt lat="45.09706" lon="5.02863">
        <ele>252.08299255371</ele>
        <time>2010-10-30T07:46:10Z</time>
      </trkpt>
      <trkpt lat="45.09611" lon="5.0289">
        <ele>250.03999328613</ele>
        <time>2010-10-30T07:46:17Z</time>
      </trkpt>
      <trkpt lat="45.09544" lon="5.02909">
        <ele>247.74099731445</ele>
        <time>2010-10-30T07:46:22Z</time>
      </trkpt>
      <trkpt lat="45.09449" lon="5.02934">
        <ele>242.25300598144</ele>
        <time>2010-10-30T07:46:29Z</time>
      </trkpt>
      <trkpt lat="45.09422" lon="5.02938">
        <ele>240.78700256348</ele>
        <time>2010-10-30T07:46:31Z</time>
      </trkpt>
      <trkpt lat="45.09354" lon="5.02934">
        <ele>239.02400207519</ele>
        <time>2010-10-30T07:46:36Z</time>
      </trkpt>
      <trkpt lat="45.09266" lon="5.02925">
        <ele>239.63999938965</ele>
        <time>2010-10-30T07:46:43Z</time>
      </trkpt>
      <trkpt lat="45.09201" lon="5.02919">
        <ele>239.40699768066</ele>
        <time>2010-10-30T07:46:49Z</time>
      </trkpt>
      <trkpt lat="45.0915" lon="5.02913">
        <ele>240.03399658203</ele>
        <time>2010-10-30T07:46:54Z</time>
      </trkpt>
      <trkpt lat="45.09086" lon="5.02907">
        <ele>241.69000244141</ele>
        <time>2010-10-30T07:47:01Z</time>
      </trkpt>
      <trkpt lat="45.09029" lon="5.02908">
        <ele>239.91200256348</ele>
        <time>2010-10-30T07:47:07Z</time>
      </trkpt>
      <trkpt lat="45.08981" lon="5.02923">
        <ele>239.33099365234</ele>
        <time>2010-10-30T07:47:12Z</time>
      </trkpt>
      <trkpt lat="45.08875" lon="5.02961">
        <ele>238.70399475098</ele>
        <time>2010-10-30T07:47:23Z</time>
      </trkpt>
      <trkpt lat="45.08783" lon="5.02993">
        <ele>238.48500061035</ele>
        <time>2010-10-30T07:47:33Z</time>
      </trkpt>
      <trkpt lat="45.08692" lon="5.03025">
        <ele>236.71699523926</ele>
        <time>2010-10-30T07:47:43Z</time>
      </trkpt>
      <trkpt lat="45.08615" lon="5.03059">
        <ele>236.62199401856</ele>
        <time>2010-10-30T07:47:52Z</time>
      </trkpt>
      <trkpt lat="45.08557" lon="5.03094">
        <ele>235.97799682617</ele>
        <time>2010-10-30T07:47:59Z</time>
      </trkpt>
      <trkpt lat="45.08521" lon="5.03137">
        <ele>234.14399719238</ele>
        <time>2010-10-30T07:48:04Z</time>
      </trkpt>
      <trkpt lat="45.08474" lon="5.03216">
        <ele>231.52799987793</ele>
        <time>2010-10-30T07:48:11Z</time>
      </trkpt>
      <trkpt lat="45.08466" lon="5.03228">
        <ele>231.2559967041</ele>
        <time>2010-10-30T07:48:12Z</time>
      </trkpt>
      <trkpt lat="45.08401" lon="5.03338">
        <ele>228.00799560547</ele>
        <time>2010-10-30T07:48:21Z</time>
      </trkpt>
      <trkpt lat="45.08394" lon="5.03351">
        <ele>227.8450012207</ele>
        <time>2010-10-30T07:48:22Z</time>
      </trkpt>
      <trkpt lat="45.08325" lon="5.03467">
        <ele>223.82000732422</ele>
        <time>2010-10-30T07:48:31Z</time>
      </trkpt>
      <trkpt lat="45.08293" lon="5.03532">
        <ele>224.07099914551</ele>
        <time>2010-10-30T07:48:36Z</time>
      </trkpt>
      <trkpt lat="45.08271" lon="5.036">
        <ele>224.29600524902</ele>
        <time>2010-10-30T07:48:41Z</time>
      </trkpt>
      <trkpt lat="45.08251" lon="5.03668">
        <ele>223.08599853516</ele>
        <time>2010-10-30T07:48:46Z</time>
      </trkpt>
      <trkpt lat="45.08219" lon="5.03724">
        <ele>222.78500366211</ele>
        <time>2010-10-30T07:48:51Z</time>
      </trkpt>
      <trkpt lat="45.08184" lon="5.03749">
        <ele>223.02000427246</ele>
        <time>2010-10-30T07:48:55Z</time>
      </trkpt>
      <trkpt lat="45.08165" lon="5.03755">
        <ele>222.36199951172</ele>
        <time>2010-10-30T07:48:57Z</time>
      </trkpt>
      <trkpt lat="45.08128" lon="5.03763">
        <ele>223.43699645996</ele>
        <time>2010-10-30T07:49:01Z</time>
      </trkpt>
      <trkpt lat="45.08048" lon="5.03785">
        <ele>223.17300415039</ele>
        <time>2010-10-30T07:49:10Z</time>
      </trkpt>
      <trkpt lat="45.08009" lon="5.03809">
        <ele>223.30999755859</ele>
        <time>2010-10-30T07:49:15Z</time>
      </trkpt>
      <trkpt lat="45.07947" lon="5.03858">
        <ele>222.26699829102</ele>
        <time>2010-10-30T07:49:23Z</time>
      </trkpt>
      <trkpt lat="45.07878" lon="5.03912">
        <ele>222.27699279785</ele>
        <time>2010-10-30T07:49:32Z</time>
      </trkpt>
      <trkpt lat="45.07818" lon="5.03957">
        <ele>222.76100158691</ele>
        <time>2010-10-30T07:49:40Z</time>
      </trkpt>
      <trkpt lat="45.07755" lon="5.03988">
        <ele>223.0119934082</ele>
        <time>2010-10-30T07:49:48Z</time>
      </trkpt>
      <trkpt lat="45.07692" lon="5.04013">
        <ele>224.01800537109</ele>
        <time>2010-10-30T07:49:56Z</time>
      </trkpt>
      <trkpt lat="45.07627" lon="5.0404">
        <ele>221.61399841309</ele>
        <time>2010-10-30T07:50:04Z</time>
      </trkpt>
      <trkpt lat="45.07563" lon="5.04053">
        <ele>221.18899536133</ele>
        <time>2010-10-30T07:50:11Z</time>
      </trkpt>
      <trkpt lat="45.0745" lon="5.04068">
        <ele>219.92599487305</ele>
        <time>2010-10-30T07:50:23Z</time>
      </trkpt>
      <trkpt lat="45.07392" lon="5.04065">
        <ele>220.00999450684</ele>
        <time>2010-10-30T07:50:29Z</time>
      </trkpt>
      <trkpt lat="45.07328" lon="5.04047">
        <ele>219.54499816894</ele>
        <time>2010-10-30T07:50:36Z</time>
      </trkpt>
      <trkpt lat="45.07249" lon="5.04016">
        <ele>218.5119934082</ele>
        <time>2010-10-30T07:50:45Z</time>
      </trkpt>
      <trkpt lat="45.07165" lon="5.03982">
        <ele>218.77099609375</ele>
        <time>2010-10-30T07:50:55Z</time>
      </trkpt>
      <trkpt lat="45.07072" lon="5.03943">
        <ele>218.34300231934</ele>
        <time>2010-10-30T07:51:06Z</time>
      </trkpt>
      <trkpt lat="45.07001" lon="5.03921">
        <ele>217.56900024414</ele>
        <time>2010-10-30T07:51:14Z</time>
      </trkpt>
      <trkpt lat="45.0691" lon="5.039">
        <ele>217.37300109863</ele>
        <time>2010-10-30T07:51:24Z</time>
      </trkpt>
      <trkpt lat="45.06892" lon="5.03897">
        <ele>218.22099304199</ele>
        <time>2010-10-30T07:51:26Z</time>
      </trkpt>
      <trkpt lat="45.06861" lon="5.03909">
        <ele>218.36099243164</ele>
        <time>2010-10-30T07:51:30Z</time>
      </trkpt>
      <trkpt lat="45.06847" lon="5.03939">
        <ele>217.81700134277</ele>
        <time>2010-10-30T07:51:33Z</time>
      </trkpt>
      <trkpt lat="45.06826" lon="5.03963">
        <ele>216.73899841309</ele>
        <time>2010-10-30T07:51:36Z</time>
      </trkpt>
      <trkpt lat="45.06748" lon="5.04016">
        <ele>215.59199523926</ele>
        <time>2010-10-30T07:51:45Z</time>
      </trkpt>
      <trkpt lat="45.06677" lon="5.04051">
        <ele>215.34399414062</ele>
        <time>2010-10-30T07:51:53Z</time>
      </trkpt>
      <trkpt lat="45.06622" lon="5.04065">
        <ele>214.85800170898</ele>
        <time>2010-10-30T07:51:59Z</time>
      </trkpt>
      <trkpt lat="45.06567" lon="5.04063">
        <ele>214.8630065918</ele>
        <time>2010-10-30T07:52:05Z</time>
      </trkpt>
      <trkpt lat="45.06483" lon="5.04068">
        <ele>214.22099304199</ele>
        <time>2010-10-30T07:52:14Z</time>
      </trkpt>
      <trkpt lat="45.06409" lon="5.04077">
        <ele>213.84300231934</ele>
        <time>2010-10-30T07:52:22Z</time>
      </trkpt>
      <trkpt lat="45.06336" lon="5.04081">
        <ele>213.95399475098</ele>
        <time>2010-10-30T07:52:30Z</time>
      </trkpt>
      <trkpt lat="45.06284" lon="5.041">
        <ele>212.91299438477</ele>
        <time>2010-10-30T07:52:36Z</time>
      </trkpt>
      <trkpt lat="45.06208" lon="5.04128">
        <ele>212.25</ele>
        <time>2010-10-30T07:52:45Z</time>
      </trkpt>
      <trkpt lat="45.0614" lon="5.04153">
        <ele>211.81599426269</ele>
        <time>2010-10-30T07:52:53Z</time>
      </trkpt>
      <trkpt lat="45.06097" lon="5.04166">
        <ele>211.27699279785</ele>
        <time>2010-10-30T07:52:58Z</time>
      </trkpt>
      <trkpt lat="45.06063" lon="5.04161">
        <ele>210.60600280762</ele>
        <time>2010-10-30T07:53:02Z</time>
      </trkpt>
      <trkpt lat="45.06033" lon="5.04142">
        <ele>210.52200317383</ele>
        <time>2010-10-30T07:53:06Z</time>
      </trkpt>
      <trkpt lat="45.06018" lon="5.04147">
        <ele>210.98899841309</ele>
        <time>2010-10-30T07:53:08Z</time>
      </trkpt>
      <trkpt lat="45.06005" lon="5.04175">
        <ele>210.89700317383</ele>
        <time>2010-10-30T07:53:11Z</time>
      </trkpt>
      <trkpt lat="45.05994" lon="5.04192">
        <ele>210.83099365234</ele>
        <time>2010-10-30T07:53:13Z</time>
      </trkpt>
      <trkpt lat="45.05951" lon="5.04225">
        <ele>211.04200744629</ele>
        <time>2010-10-30T07:53:19Z</time>
      </trkpt>
      <trkpt lat="45.05901" lon="5.04238">
        <ele>210.37899780273</ele>
        <time>2010-10-30T07:53:25Z</time>
      </trkpt>
      <trkpt lat="45.05865" lon="5.0424">
        <ele>209.49099731445</ele>
        <time>2010-10-30T07:53:29Z</time>
      </trkpt>
      <trkpt lat="45.05829" lon="5.0424">
        <ele>208.79600524902</ele>
        <time>2010-10-30T07:53:33Z</time>
      </trkpt>
      <trkpt lat="45.05794" lon="5.04247">
        <ele>209.42799377441</ele>
        <time>2010-10-30T07:53:37Z</time>
      </trkpt>
      <trkpt lat="45.05754" lon="5.04268">
        <ele>210.33700561523</ele>
        <time>2010-10-30T07:53:42Z</time>
      </trkpt>
      <trkpt lat="45.057" lon="5.04304">
        <ele>210.05900573731</ele>
        <time>2010-10-30T07:53:49Z</time>
      </trkpt>
      <trkpt lat="45.05642" lon="5.04333">
        <ele>209.4880065918</ele>
        <time>2010-10-30T07:53:56Z</time>
      </trkpt>
      <trkpt lat="45.05625" lon="5.04339">
        <ele>209.71800231934</ele>
        <time>2010-10-30T07:53:58Z</time>
      </trkpt>
      <trkpt lat="45.05565" lon="5.04351">
        <ele>209.30299377441</ele>
        <time>2010-10-30T07:54:05Z</time>
      </trkpt>
      <trkpt lat="45.05487" lon="5.04371">
        <ele>209.17900085449</ele>
        <time>2010-10-30T07:54:14Z</time>
      </trkpt>
      <trkpt lat="45.05429" lon="5.04399">
        <ele>208.46099853516</ele>
        <time>2010-10-30T07:54:21Z</time>
      </trkpt>
      <trkpt lat="45.05365" lon="5.04434">
        <ele>207.83999633789</ele>
        <time>2010-10-30T07:54:29Z</time>
      </trkpt>
      <trkpt lat="45.05322" lon="5.04468">
        <ele>207.94500732422</ele>
        <time>2010-10-30T07:54:35Z</time>
      </trkpt>
      <trkpt lat="45.05281" lon="5.04508">
        <ele>207.16000366211</ele>
        <time>2010-10-30T07:54:41Z</time>
      </trkpt>
      <trkpt lat="45.05273" lon="5.04515">
        <ele>207.33799743652</ele>
        <time>2010-10-30T07:54:42Z</time>
      </trkpt>
      <trkpt lat="45.05218" lon="5.04551">
        <ele>206.94599914551</ele>
        <time>2010-10-30T07:54:49Z</time>
      </trkpt>
      <trkpt lat="45.05162" lon="5.04583">
        <ele>206.5950012207</ele>
        <time>2010-10-30T07:54:56Z</time>
      </trkpt>
      <trkpt lat="45.05145" lon="5.04592">
        <ele>206.74000549316</ele>
        <time>2010-10-30T07:54:58Z</time>
      </trkpt>
      <trkpt lat="45.05098" lon="5.04637">
        <ele>206.95399475098</ele>
        <time>2010-10-30T07:55:04Z</time>
      </trkpt>
      <trkpt lat="45.05047" lon="5.04696">
        <ele>206.20899963379</ele>
        <time>2010-10-30T07:55:11Z</time>
      </trkpt>
      <trkpt lat="45.05033" lon="5.04712">
        <ele>206.125</ele>
        <time>2010-10-30T07:55:13Z</time>
      </trkpt>
      <trkpt lat="45.05005" lon="5.04736">
        <ele>206.18299865723</ele>
        <time>2010-10-30T07:55:17Z</time>
      </trkpt>
      <trkpt lat="45.04995" lon="5.04735">
        <ele>205.52200317383</ele>
        <time>2010-10-30T07:55:18Z</time>
      </trkpt>
      <trkpt lat="45.04943" lon="5.04742">
        <ele>201.63299560547</ele>
        <time>2010-10-30T07:55:23Z</time>
      </trkpt>
      <trkpt lat="45.04912" lon="5.04753">
        <ele>200.08399963379</ele>
        <time>2010-10-30T07:55:26Z</time>
      </trkpt>
      <trkpt lat="45.0489" lon="5.04775">
        <ele>202.6609954834</ele>
        <time>2010-10-30T07:55:29Z</time>
      </trkpt>
      <trkpt lat="45.04887" lon="5.04786">
        <ele>202.88299560547</ele>
        <time>2010-10-30T07:55:30Z</time>
      </trkpt>
      <trkpt lat="45.04883" lon="5.04818">
        <ele>204.83299255371</ele>
        <time>2010-10-30T07:55:33Z</time>
      </trkpt>
      <trkpt lat="45.04878" lon="5.04826">
        <ele>205.5059967041</ele>
        <time>2010-10-30T07:55:35Z</time>
      </trkpt>
      <trkpt lat="45.04864" lon="5.04841">
        <ele>206.37800598144</ele>
        <time>2010-10-30T07:55:39Z</time>
      </trkpt>
      <trkpt lat="45.04855" lon="5.04862">
        <ele>205.18699645996</ele>
        <time>2010-10-30T07:55:42Z</time>
      </trkpt>
      <trkpt lat="45.04855" lon="5.04892">
        <ele>205.02499389648</ele>
        <time>2010-10-30T07:55:45Z</time>
      </trkpt>
      <trkpt lat="45.04853" lon="5.04914">
        <ele>205.4880065918</ele>
        <time>2010-10-30T07:55:47Z</time>
      </trkpt>
      <trkpt lat="45.04846" lon="5.04989">
        <ele>205.72300720215</ele>
        <time>2010-10-30T07:55:54Z</time>
      </trkpt>
      <trkpt lat="45.04839" lon="5.05082">
        <ele>205.51699829102</ele>
        <time>2010-10-30T07:56:02Z</time>
      </trkpt>
      <trkpt lat="45.04832" lon="5.05169">
        <ele>205.39799499512</ele>
        <time>2010-10-30T07:56:09Z</time>
      </trkpt>
      <trkpt lat="45.04824" lon="5.05284">
        <ele>206.37300109863</ele>
        <time>2010-10-30T07:56:18Z</time>
      </trkpt>
      <trkpt lat="45.04815" lon="5.05387">
        <ele>206.65600585938</ele>
        <time>2010-10-30T07:56:26Z</time>
      </trkpt>
      <trkpt lat="45.04812" lon="5.05411">
        <ele>207.14199829102</ele>
        <time>2010-10-30T07:56:28Z</time>
      </trkpt>
      <trkpt lat="45.048" lon="5.05451">
        <ele>207.24000549316</ele>
        <time>2010-10-30T07:56:32Z</time>
      </trkpt>
      <trkpt lat="45.04789" lon="5.05462">
        <ele>207.66499328613</ele>
        <time>2010-10-30T07:56:34Z</time>
      </trkpt>
      <trkpt lat="45.0477" lon="5.05475">
        <ele>207.5890045166</ele>
        <time>2010-10-30T07:56:40Z</time>
      </trkpt>
      <trkpt lat="45.04768" lon="5.05476">
        <ele>207.68099975586</ele>
        <time>2010-10-30T07:56:43Z</time>
      </trkpt>
      <trkpt lat="45.04767" lon="5.05477">
        <ele>207.09700012207</ele>
        <time>2010-10-30T07:57:24Z</time>
      </trkpt>
      <trkpt lat="45.04765" lon="5.05479">
        <ele>206.99899291992</ele>
        <time>2010-10-30T07:57:25Z</time>
      </trkpt>
      <trkpt lat="45.04757" lon="5.05485">
        <ele>206.56300354004</ele>
        <time>2010-10-30T07:57:27Z</time>
      </trkpt>
      <trkpt lat="45.0472" lon="5.05516">
        <ele>206.33299255371</ele>
        <time>2010-10-30T07:57:33Z</time>
      </trkpt>
      <trkpt lat="45.0468" lon="5.05546">
        <ele>205.58299255371</ele>
        <time>2010-10-30T07:57:38Z</time>
      </trkpt>
      <trkpt lat="45.04672" lon="5.0555">
        <ele>205.07600402832</ele>
        <time>2010-10-30T07:57:39Z</time>
      </trkpt>
      <trkpt lat="45.04619" lon="5.05551">
        <ele>204.3809967041</ele>
        <time>2010-10-30T07:57:45Z</time>
      </trkpt>
      <trkpt lat="45.04603" lon="5.05554">
        <ele>204.41000366211</ele>
        <time>2010-10-30T07:57:47Z</time>
      </trkpt>
      <trkpt lat="45.04581" lon="5.0555">
        <ele>204.72200012207</ele>
        <time>2010-10-30T07:57:51Z</time>
      </trkpt>
      <trkpt lat="45.04578" lon="5.0553">
        <ele>203.99499511719</ele>
        <time>2010-10-30T07:57:56Z</time>
      </trkpt>
      <trkpt lat="45.04576" lon="5.0551">
        <ele>203.96099853516</ele>
        <time>2010-10-30T07:58:00Z</time>
      </trkpt>
      <trkpt lat="45.04571" lon="5.055">
        <ele>204.29600524902</ele>
        <time>2010-10-30T07:58:03Z</time>
      </trkpt>
      <trkpt lat="45.04569" lon="5.05499">
        <ele>204.58399963379</ele>
        <time>2010-10-30T07:58:06Z</time>
      </trkpt>
      <trkpt lat="45.04565" lon="5.05502">
        <ele>201.65899658203</ele>
        <time>2010-10-30T08:05:32Z</time>
      </trkpt>
      <trkpt lat="45.04564" lon="5.05503">
        <ele>201.49499511719</ele>
        <time>2010-10-30T08:05:33Z</time>
      </trkpt>
      <trkpt lat="45.04552" lon="5.05503">
        <ele>200.94799804688</ele>
        <time>2010-10-30T08:05:38Z</time>
      </trkpt>
      <trkpt lat="45.04543" lon="5.05494">
        <ele>200.59700012207</ele>
        <time>2010-10-30T08:05:44Z</time>
      </trkpt>
      <trkpt lat="45.04539" lon="5.055">
        <ele>200.71600341797</ele>
        <time>2010-10-30T08:05:48Z</time>
      </trkpt>
      <trkpt lat="45.04538" lon="5.05507">
        <ele>200.47799682617</ele>
        <time>2010-10-30T08:05:51Z</time>
      </trkpt>
      <trkpt lat="45.04537" lon="5.05527">
        <ele>200.99899291992</ele>
        <time>2010-10-30T08:05:57Z</time>
      </trkpt>
      <trkpt lat="45.0453" lon="5.05553">
        <ele>200.49899291992</ele>
        <time>2010-10-30T08:06:02Z</time>
      </trkpt>
      <trkpt lat="45.04518" lon="5.05567">
        <ele>199.85200500488</ele>
        <time>2010-10-30T08:06:05Z</time>
      </trkpt>
      <trkpt lat="45.0451" lon="5.05579">
        <ele>199.25999450684</ele>
        <time>2010-10-30T08:06:07Z</time>
      </trkpt>
      <trkpt lat="45.04494" lon="5.05606">
        <ele>198.33299255371</ele>
        <time>2010-10-30T08:06:11Z</time>
      </trkpt>
      <trkpt lat="45.04483" lon="5.05632">
        <ele>197.47900390625</ele>
        <time>2010-10-30T08:06:14Z</time>
      </trkpt>
      <trkpt lat="45.04473" lon="5.05678">
        <ele>196.20799255371</ele>
        <time>2010-10-30T08:06:19Z</time>
      </trkpt>
      <trkpt lat="45.04462" lon="5.0573">
        <ele>193.36000061035</ele>
        <time>2010-10-30T08:06:25Z</time>
      </trkpt>
      <trkpt lat="45.04448" lon="5.05793">
        <ele>191.6369934082</ele>
        <time>2010-10-30T08:06:31Z</time>
      </trkpt>
      <trkpt lat="45.04445" lon="5.05804">
        <ele>191.14799499512</ele>
        <time>2010-10-30T08:06:32Z</time>
      </trkpt>
      <trkpt lat="45.04423" lon="5.0584">
        <ele>189.81100463867</ele>
        <time>2010-10-30T08:06:36Z</time>
      </trkpt>
      <trkpt lat="45.04396" lon="5.05849">
        <ele>187.82099914551</ele>
        <time>2010-10-30T08:06:39Z</time>
      </trkpt>
      <trkpt lat="45.04387" lon="5.05848">
        <ele>187.72900390625</ele>
        <time>2010-10-30T08:06:40Z</time>
      </trkpt>
      <trkpt lat="45.0437" lon="5.05842">
        <ele>186.93600463867</ele>
        <time>2010-10-30T08:06:42Z</time>
      </trkpt>
      <trkpt lat="45.04303" lon="5.05811">
        <ele>184.30400085449</ele>
        <time>2010-10-30T08:06:50Z</time>
      </trkpt>
      <trkpt lat="45.04288" lon="5.05803">
        <ele>183.73899841309</ele>
        <time>2010-10-30T08:06:52Z</time>
      </trkpt>
      <trkpt lat="45.04277" lon="5.05796">
        <ele>184.23599243164</ele>
        <time>2010-10-30T08:06:54Z</time>
      </trkpt>
      <trkpt lat="45.04256" lon="5.05788">
        <ele>183.1549987793</ele>
        <time>2010-10-30T08:06:58Z</time>
      </trkpt>
      <trkpt lat="45.04235" lon="5.0579">
        <ele>182.57400512695</ele>
        <time>2010-10-30T08:07:02Z</time>
      </trkpt>
      <trkpt lat="45.0422" lon="5.05786">
        <ele>181.14700317383</ele>
        <time>2010-10-30T08:07:07Z</time>
      </trkpt>
      <trkpt lat="45.04212" lon="5.05797">
        <ele>180.68400573731</ele>
        <time>2010-10-30T08:07:11Z</time>
      </trkpt>
      <trkpt lat="45.04211" lon="5.05809">
        <ele>180.19599914551</ele>
        <time>2010-10-30T08:07:13Z</time>
      </trkpt>
      <trkpt lat="45.04208" lon="5.05874">
        <ele>179.72799682617</ele>
        <time>2010-10-30T08:07:21Z</time>
      </trkpt>
      <trkpt lat="45.04204" lon="5.05924">
        <ele>179.96600341797</ele>
        <time>2010-10-30T08:07:27Z</time>
      </trkpt>
      <trkpt lat="45.04203" lon="5.0598">
        <ele>180.10299682617</ele>
        <time>2010-10-30T08:07:34Z</time>
      </trkpt>
      <trkpt lat="45.04203" lon="5.06018">
        <ele>180.45700073242</ele>
        <time>2010-10-30T08:07:39Z</time>
      </trkpt>
      <trkpt lat="45.04203" lon="5.06034">
        <ele>180.44099426269</ele>
        <time>2010-10-30T08:07:41Z</time>
      </trkpt>
      <trkpt lat="45.04199" lon="5.0608">
        <ele>180.76400756836</ele>
        <time>2010-10-30T08:07:47Z</time>
      </trkpt>
      <trkpt lat="45.04192" lon="5.06126">
        <ele>181.76800537109</ele>
        <time>2010-10-30T08:07:53Z</time>
      </trkpt>
      <trkpt lat="45.04187" lon="5.06166">
        <ele>181.87300109863</ele>
        <time>2010-10-30T08:07:58Z</time>
      </trkpt>
      <trkpt lat="45.04169" lon="5.06232">
        <ele>182.24600219727</ele>
        <time>2010-10-30T08:08:06Z</time>
      </trkpt>
      <trkpt lat="45.04163" lon="5.06293">
        <ele>182.4049987793</ele>
        <time>2010-10-30T08:08:13Z</time>
      </trkpt>
      <trkpt lat="45.04162" lon="5.06352">
        <ele>183.59899902344</ele>
        <time>2010-10-30T08:08:20Z</time>
      </trkpt>
      <trkpt lat="45.04161" lon="5.06396">
        <ele>185.19500732422</ele>
        <time>2010-10-30T08:08:26Z</time>
      </trkpt>
      <trkpt lat="45.04153" lon="5.06449">
        <ele>186.93099975586</ele>
        <time>2010-10-30T08:08:33Z</time>
      </trkpt>
      <trkpt lat="45.04151" lon="5.06471">
        <ele>187.33799743652</ele>
        <time>2010-10-30T08:08:36Z</time>
      </trkpt>
      <trkpt lat="45.0415" lon="5.06501">
        <ele>188.21800231934</ele>
        <time>2010-10-30T08:08:40Z</time>
      </trkpt>
      <trkpt lat="45.0415" lon="5.06515">
        <ele>188.45300292969</ele>
        <time>2010-10-30T08:08:42Z</time>
      </trkpt>
      <trkpt lat="45.04153" lon="5.06557">
        <ele>190.14399719238</ele>
        <time>2010-10-30T08:08:48Z</time>
      </trkpt>
      <trkpt lat="45.04154" lon="5.06583">
        <ele>191.10000610352</ele>
        <time>2010-10-30T08:08:52Z</time>
      </trkpt>
      <trkpt lat="45.04156" lon="5.06602">
        <ele>191.64700317383</ele>
        <time>2010-10-30T08:08:55Z</time>
      </trkpt>
      <trkpt lat="45.04156" lon="5.06653">
        <ele>192.49000549316</ele>
        <time>2010-10-30T08:09:03Z</time>
      </trkpt>
      <trkpt lat="45.04147" lon="5.06709">
        <ele>192.73599243164</ele>
        <time>2010-10-30T08:09:11Z</time>
      </trkpt>
      <trkpt lat="45.04139" lon="5.06758">
        <ele>192.80999755859</ele>
        <time>2010-10-30T08:09:18Z</time>
      </trkpt>
      <trkpt lat="45.0413" lon="5.06802">
        <ele>192.82099914551</ele>
        <time>2010-10-30T08:09:24Z</time>
      </trkpt>
      <trkpt lat="45.04128" lon="5.06817">
        <ele>192.86000061035</ele>
        <time>2010-10-30T08:09:26Z</time>
      </trkpt>
      <trkpt lat="45.04126" lon="5.06879">
        <ele>193.36799621582</ele>
        <time>2010-10-30T08:09:34Z</time>
      </trkpt>
      <trkpt lat="45.04125" lon="5.06938">
        <ele>193.89599609375</ele>
        <time>2010-10-30T08:09:42Z</time>
      </trkpt>
      <trkpt lat="45.04124" lon="5.06958">
        <ele>194.34800720215</ele>
        <time>2010-10-30T08:09:45Z</time>
      </trkpt>
      <trkpt lat="45.04116" lon="5.07031">
        <ele>194.35600280762</ele>
        <time>2010-10-30T08:09:55Z</time>
      </trkpt>
      <trkpt lat="45.04111" lon="5.07111">
        <ele>194.70199584961</ele>
        <time>2010-10-30T08:10:05Z</time>
      </trkpt>
      <trkpt lat="45.04108" lon="5.07175">
        <ele>194.70700073242</ele>
        <time>2010-10-30T08:10:13Z</time>
      </trkpt>
      <trkpt lat="45.04105" lon="5.07236">
        <ele>195.03199768066</ele>
        <time>2010-10-30T08:10:21Z</time>
      </trkpt>
      <trkpt lat="45.04108" lon="5.07297">
        <ele>195.09599304199</ele>
        <time>2010-10-30T08:10:29Z</time>
      </trkpt>
      <trkpt lat="45.04109" lon="5.07352">
        <ele>194.97099304199</ele>
        <time>2010-10-30T08:10:36Z</time>
      </trkpt>
      <trkpt lat="45.04109" lon="5.07415">
        <ele>195.62699890137</ele>
        <time>2010-10-30T08:10:44Z</time>
      </trkpt>
      <trkpt lat="45.04108" lon="5.07423">
        <ele>194.99000549316</ele>
        <time>2010-10-30T08:10:45Z</time>
      </trkpt>
      <trkpt lat="45.04108" lon="5.07477">
        <ele>195.4049987793</ele>
        <time>2010-10-30T08:10:52Z</time>
      </trkpt>
      <trkpt lat="45.04108" lon="5.07523">
        <ele>196.12600708008</ele>
        <time>2010-10-30T08:10:58Z</time>
      </trkpt>
      <trkpt lat="45.04108" lon="5.07531">
        <ele>196.34800720215</ele>
        <time>2010-10-30T08:10:59Z</time>
      </trkpt>
      <trkpt lat="45.0411" lon="5.07552">
        <ele>196.51499938965</ele>
        <time>2010-10-30T08:11:02Z</time>
      </trkpt>
      <trkpt lat="45.04118" lon="5.07579">
        <ele>196.77900695801</ele>
        <time>2010-10-30T08:11:06Z</time>
      </trkpt>
      <trkpt lat="45.04136" lon="5.07617">
        <ele>198.75500488281</ele>
        <time>2010-10-30T08:11:13Z</time>
      </trkpt>
      <trkpt lat="45.04146" lon="5.07646">
        <ele>200.14500427246</ele>
        <time>2010-10-30T08:11:18Z</time>
      </trkpt>
      <trkpt lat="45.04151" lon="5.07657">
        <ele>200.88800048828</ele>
        <time>2010-10-30T08:11:20Z</time>
      </trkpt>
      <trkpt lat="45.04155" lon="5.07669">
        <ele>201.60099792481</ele>
        <time>2010-10-30T08:11:22Z</time>
      </trkpt>
      <trkpt lat="45.04163" lon="5.07694">
        <ele>202.76400756836</ele>
        <time>2010-10-30T08:11:26Z</time>
      </trkpt>
      <trkpt lat="45.04174" lon="5.07732">
        <ele>203.58299255371</ele>
        <time>2010-10-30T08:11:32Z</time>
      </trkpt>
      <trkpt lat="45.04176" lon="5.07746">
        <ele>203.47999572754</ele>
        <time>2010-10-30T08:11:34Z</time>
      </trkpt>
      <trkpt lat="45.04184" lon="5.07796">
        <ele>204.03500366211</ele>
        <time>2010-10-30T08:11:41Z</time>
      </trkpt>
      <trkpt lat="45.04188" lon="5.07819">
        <ele>203.91600036621</ele>
        <time>2010-10-30T08:11:44Z</time>
      </trkpt>
      <trkpt lat="45.04195" lon="5.07848">
        <ele>203.78100585938</ele>
        <time>2010-10-30T08:11:48Z</time>
      </trkpt>
      <trkpt lat="45.0421" lon="5.07906">
        <ele>203.00700378418</ele>
        <time>2010-10-30T08:11:56Z</time>
      </trkpt>
      <trkpt lat="45.04225" lon="5.07956">
        <ele>202.60000610352</ele>
        <time>2010-10-30T08:12:03Z</time>
      </trkpt>
      <trkpt lat="45.04234" lon="5.07985">
        <ele>203.44799804688</ele>
        <time>2010-10-30T08:12:07Z</time>
      </trkpt>
      <trkpt lat="45.04239" lon="5.08023">
        <ele>203.18600463867</ele>
        <time>2010-10-30T08:12:12Z</time>
      </trkpt>
      <trkpt lat="45.04238" lon="5.08053">
        <ele>203.21299743652</ele>
        <time>2010-10-30T08:12:16Z</time>
      </trkpt>
      <trkpt lat="45.04238" lon="5.08084">
        <ele>203.24299621582</ele>
        <time>2010-10-30T08:12:20Z</time>
      </trkpt>
      <trkpt lat="45.04246" lon="5.08135">
        <ele>203.90800476074</ele>
        <time>2010-10-30T08:12:27Z</time>
      </trkpt>
      <trkpt lat="45.04256" lon="5.0817">
        <ele>203.5299987793</ele>
        <time>2010-10-30T08:12:32Z</time>
      </trkpt>
      <trkpt lat="45.04271" lon="5.08222">
        <ele>204.39700317383</ele>
        <time>2010-10-30T08:12:39Z</time>
      </trkpt>
      <trkpt lat="45.04275" lon="5.08236">
        <ele>204.69500732422</ele>
        <time>2010-10-30T08:12:41Z</time>
      </trkpt>
      <trkpt lat="45.04293" lon="5.08291">
        <ele>204.875</ele>
        <time>2010-10-30T08:12:49Z</time>
      </trkpt>
      <trkpt lat="45.04307" lon="5.08339">
        <ele>205.4640045166</ele>
        <time>2010-10-30T08:12:56Z</time>
      </trkpt>
      <trkpt lat="45.04312" lon="5.08359">
        <ele>205.23399353027</ele>
        <time>2010-10-30T08:12:59Z</time>
      </trkpt>
      <trkpt lat="45.04309" lon="5.08389">
        <ele>204.44200134277</ele>
        <time>2010-10-30T08:13:03Z</time>
      </trkpt>
      <trkpt lat="45.04305" lon="5.08422">
        <ele>204.78199768066</ele>
        <time>2010-10-30T08:13:07Z</time>
      </trkpt>
      <trkpt lat="45.04306" lon="5.0843">
        <ele>204.79800415039</ele>
        <time>2010-10-30T08:13:08Z</time>
      </trkpt>
      <trkpt lat="45.043" lon="5.08469">
        <ele>204.21200561523</ele>
        <time>2010-10-30T08:13:13Z</time>
      </trkpt>
      <trkpt lat="45.04288" lon="5.08478">
        <ele>203.32600402832</ele>
        <time>2010-10-30T08:13:15Z</time>
      </trkpt>
      <trkpt lat="45.04262" lon="5.08523">
        <ele>200.08200073242</ele>
        <time>2010-10-30T08:13:20Z</time>
      </trkpt>
      <trkpt lat="45.04254" lon="5.08547">
        <ele>198.46200561523</ele>
        <time>2010-10-30T08:13:22Z</time>
      </trkpt>
      <trkpt lat="45.04243" lon="5.08568">
        <ele>197.16700744629</ele>
        <time>2010-10-30T08:13:24Z</time>
      </trkpt>
      <trkpt lat="45.04211" lon="5.0861">
        <ele>194.1369934082</ele>
        <time>2010-10-30T08:13:29Z</time>
      </trkpt>
      <trkpt lat="45.04197" lon="5.08622">
        <ele>192.94500732422</ele>
        <time>2010-10-30T08:13:31Z</time>
      </trkpt>
      <trkpt lat="45.04181" lon="5.08631">
        <ele>192.52699279785</ele>
        <time>2010-10-30T08:13:34Z</time>
      </trkpt>
      <trkpt lat="45.04163" lon="5.08637">
        <ele>191.29299926758</ele>
        <time>2010-10-30T08:13:38Z</time>
      </trkpt>
      <trkpt lat="45.04118" lon="5.08649">
        <ele>190.42900085449</ele>
        <time>2010-10-30T08:13:44Z</time>
      </trkpt>
      <trkpt lat="45.04079" lon="5.08658">
        <ele>190.96600341797</ele>
        <time>2010-10-30T08:13:49Z</time>
      </trkpt>
      <trkpt lat="45.04066" lon="5.08662">
        <ele>191.32000732422</ele>
        <time>2010-10-30T08:13:51Z</time>
      </trkpt>
      <trkpt lat="45.04022" lon="5.08672">
        <ele>193.03199768066</ele>
        <time>2010-10-30T08:13:58Z</time>
      </trkpt>
      <trkpt lat="45.03999" lon="5.08681">
        <ele>192.32099914551</ele>
        <time>2010-10-30T08:14:02Z</time>
      </trkpt>
      <trkpt lat="45.03954" lon="5.08694">
        <ele>191.21099853516</ele>
        <time>2010-10-30T08:14:10Z</time>
      </trkpt>
      <trkpt lat="45.03916" lon="5.08705">
        <ele>191.62100219727</ele>
        <time>2010-10-30T08:14:17Z</time>
      </trkpt>
      <trkpt lat="45.0388" lon="5.08706">
        <ele>193.78500366211</ele>
        <time>2010-10-30T08:14:25Z</time>
      </trkpt>
      <trkpt lat="45.03875" lon="5.08706">
        <ele>194.1369934082</ele>
        <time>2010-10-30T08:14:26Z</time>
      </trkpt>
      <trkpt lat="45.03866" lon="5.08704">
        <ele>195.20700073242</ele>
        <time>2010-10-30T08:14:28Z</time>
      </trkpt>
      <trkpt lat="45.03849" lon="5.08699">
        <ele>196.40600585938</ele>
        <time>2010-10-30T08:14:32Z</time>
      </trkpt>
      <trkpt lat="45.0382" lon="5.08691">
        <ele>197.60899353027</ele>
        <time>2010-10-30T08:14:39Z</time>
      </trkpt>
      <trkpt lat="45.03782" lon="5.08682">
        <ele>199.28900146484</ele>
        <time>2010-10-30T08:14:47Z</time>
      </trkpt>
      <trkpt lat="45.0376" lon="5.08676">
        <ele>199.77299499512</ele>
        <time>2010-10-30T08:14:52Z</time>
      </trkpt>
      <trkpt lat="45.03712" lon="5.08664">
        <ele>201.99699401856</ele>
        <time>2010-10-30T08:15:03Z</time>
      </trkpt>
      <trkpt lat="45.03677" lon="5.08656">
        <ele>202.62100219727</ele>
        <time>2010-10-30T08:15:11Z</time>
      </trkpt>
      <trkpt lat="45.03667" lon="5.08653">
        <ele>202.74000549316</ele>
        <time>2010-10-30T08:15:13Z</time>
      </trkpt>
      <trkpt lat="45.03632" lon="5.08645">
        <ele>202.81700134277</ele>
        <time>2010-10-30T08:15:21Z</time>
      </trkpt>
      <trkpt lat="45.03593" lon="5.08631">
        <ele>203.94999694824</ele>
        <time>2010-10-30T08:15:31Z</time>
      </trkpt>
      <trkpt lat="45.03573" lon="5.08621">
        <ele>205.0119934082</ele>
        <time>2010-10-30T08:15:38Z</time>
      </trkpt>
      <trkpt lat="45.0357" lon="5.08622">
        <ele>205.19200134277</ele>
        <time>2010-10-30T08:15:44Z</time>
      </trkpt>
      <trkpt lat="45.03565" lon="5.08625">
        <ele>205.17300415039</ele>
        <time>2010-10-30T08:15:54Z</time>
      </trkpt>
      <trkpt lat="45.03559" lon="5.08633">
        <ele>205.45899963379</ele>
        <time>2010-10-30T08:15:59Z</time>
      </trkpt>
      <trkpt lat="45.03555" lon="5.0866">
        <ele>205.00700378418</ele>
        <time>2010-10-30T08:16:04Z</time>
      </trkpt>
      <trkpt lat="45.03551" lon="5.08723">
        <ele>205.47200012207</ele>
        <time>2010-10-30T08:16:13Z</time>
      </trkpt>
      <trkpt lat="45.03547" lon="5.08779">
        <ele>205.54600524902</ele>
        <time>2010-10-30T08:16:20Z</time>
      </trkpt>
      <trkpt lat="45.03541" lon="5.08867">
        <ele>205.64399719238</ele>
        <time>2010-10-30T08:16:30Z</time>
      </trkpt>
      <trkpt lat="45.03536" lon="5.08944">
        <ele>206.2859954834</ele>
        <time>2010-10-30T08:16:39Z</time>
      </trkpt>
      <trkpt lat="45.03531" lon="5.09005">
        <ele>206.15600585938</ele>
        <time>2010-10-30T08:16:46Z</time>
      </trkpt>
      <trkpt lat="45.03524" lon="5.09107">
        <ele>204.77699279785</ele>
        <time>2010-10-30T08:16:57Z</time>
      </trkpt>
      <trkpt lat="45.03521" lon="5.09157">
        <ele>203.76499938965</ele>
        <time>2010-10-30T08:17:02Z</time>
      </trkpt>
      <trkpt lat="45.03519" lon="5.09178">
        <ele>203.16499328613</ele>
        <time>2010-10-30T08:17:04Z</time>
      </trkpt>
      <trkpt lat="45.03513" lon="5.09255">
        <ele>201.81500244141</ele>
        <time>2010-10-30T08:17:11Z</time>
      </trkpt>
      <trkpt lat="45.03507" lon="5.09356">
        <ele>200.9109954834</ele>
        <time>2010-10-30T08:17:20Z</time>
      </trkpt>
      <trkpt lat="45.03507" lon="5.09364">
        <ele>200.68200683594</ele>
        <time>2010-10-30T08:17:21Z</time>
      </trkpt>
      <trkpt lat="45.03492" lon="5.09379">
        <ele>200.44099426269</ele>
        <time>2010-10-30T08:17:25Z</time>
      </trkpt>
      <trkpt lat="45.03471" lon="5.09384">
        <ele>203.73300170898</ele>
        <time>2010-10-30T08:17:30Z</time>
      </trkpt>
      <trkpt lat="45.03451" lon="5.09398">
        <ele>203.94700622559</ele>
        <time>2010-10-30T08:17:35Z</time>
      </trkpt>
      <trkpt lat="45.03447" lon="5.094">
        <ele>204.13000488281</ele>
        <time>2010-10-30T08:17:36Z</time>
      </trkpt>
      <trkpt lat="45.03435" lon="5.09408">
        <ele>205.14999389648</ele>
        <time>2010-10-30T08:17:39Z</time>
      </trkpt>
      <trkpt lat="45.03417" lon="5.09415">
        <ele>205.72799682617</ele>
        <time>2010-10-30T08:17:43Z</time>
      </trkpt>
      <trkpt lat="45.03392" lon="5.09416">
        <ele>205.97399902344</ele>
        <time>2010-10-30T08:17:48Z</time>
      </trkpt>
      <trkpt lat="45.03354" lon="5.09436">
        <ele>206.65100097656</ele>
        <time>2010-10-30T08:17:56Z</time>
      </trkpt>
      <trkpt lat="45.03315" lon="5.0945">
        <ele>207.39300537109</ele>
        <time>2010-10-30T08:18:04Z</time>
      </trkpt>
      <trkpt lat="45.03295" lon="5.09449">
        <ele>208.50500488281</ele>
        <time>2010-10-30T08:18:08Z</time>
      </trkpt>
      <trkpt lat="45.03251" lon="5.09436">
        <ele>209.12399291992</ele>
        <time>2010-10-30T08:18:17Z</time>
      </trkpt>
      <trkpt lat="45.03216" lon="5.09432">
        <ele>209.56799316406</ele>
        <time>2010-10-30T08:18:24Z</time>
      </trkpt>
      <trkpt lat="45.03181" lon="5.09439">
        <ele>210.51400756836</ele>
        <time>2010-10-30T08:18:31Z</time>
      </trkpt>
      <trkpt lat="45.03136" lon="5.09441">
        <ele>211.66000366211</ele>
        <time>2010-10-30T08:18:40Z</time>
      </trkpt>
      <trkpt lat="45.03111" lon="5.09442">
        <ele>212.24699401856</ele>
        <time>2010-10-30T08:18:46Z</time>
      </trkpt>
      <trkpt lat="45.03107" lon="5.09442">
        <ele>211.96699523926</ele>
        <time>2010-10-30T08:18:47Z</time>
      </trkpt>
      <trkpt lat="45.03101" lon="5.0943">
        <ele>210.99200439453</ele>
        <time>2010-10-30T08:18:50Z</time>
      </trkpt>
      <trkpt lat="45.03101" lon="5.09424">
        <ele>210.99200439453</ele>
        <time>2010-10-30T08:18:51Z</time>
      </trkpt>
      <trkpt lat="45.03104" lon="5.09405">
        <ele>209.47500610352</ele>
        <time>2010-10-30T08:18:54Z</time>
      </trkpt>
      <trkpt lat="45.0311" lon="5.09374">
        <ele>208.88600158691</ele>
        <time>2010-10-30T08:19:00Z</time>
      </trkpt>
      <trkpt lat="45.03109" lon="5.09365">
        <ele>208.53500366211</ele>
        <time>2010-10-30T08:19:02Z</time>
      </trkpt>
      <trkpt lat="45.03096" lon="5.09359">
        <ele>209.10499572754</ele>
        <time>2010-10-30T08:19:06Z</time>
      </trkpt>
      <trkpt lat="45.03079" lon="5.09359">
        <ele>208.77499389648</ele>
        <time>2010-10-30T08:19:10Z</time>
      </trkpt>
      <trkpt lat="45.0306" lon="5.09361">
        <ele>208.41600036621</ele>
        <time>2010-10-30T08:19:14Z</time>
      </trkpt>
      <trkpt lat="45.03026" lon="5.09363">
        <ele>211.08399963379</ele>
        <time>2010-10-30T08:19:21Z</time>
      </trkpt>
      <trkpt lat="45.02986" lon="5.09366">
        <ele>212.64100646973</ele>
        <time>2010-10-30T08:19:30Z</time>
      </trkpt>
      <trkpt lat="45.02978" lon="5.09367">
        <ele>213.27699279785</ele>
        <time>2010-10-30T08:19:32Z</time>
      </trkpt>
      <trkpt lat="45.02955" lon="5.09371">
        <ele>215.17999267578</ele>
        <time>2010-10-30T08:19:38Z</time>
      </trkpt>
      <trkpt lat="45.02925" lon="5.09377">
        <ele>216.54299926758</ele>
        <time>2010-10-30T08:19:46Z</time>
      </trkpt>
      <trkpt lat="45.02908" lon="5.0938">
        <ele>218.53300476074</ele>
        <time>2010-10-30T08:19:51Z</time>
      </trkpt>
      <trkpt lat="45.02886" lon="5.09384">
        <ele>219.05999755859</ele>
        <time>2010-10-30T08:19:57Z</time>
      </trkpt>
      <trkpt lat="45.02869" lon="5.09388">
        <ele>219.06700134277</ele>
        <time>2010-10-30T08:20:01Z</time>
      </trkpt>
      <trkpt lat="45.02843" lon="5.0939">
        <ele>219.75399780273</ele>
        <time>2010-10-30T08:20:07Z</time>
      </trkpt>
      <trkpt lat="45.02821" lon="5.09379">
        <ele>222.22700500488</ele>
        <time>2010-10-30T08:20:13Z</time>
      </trkpt>
      <trkpt lat="45.02818" lon="5.09377">
        <ele>222.13499450684</ele>
        <time>2010-10-30T08:20:14Z</time>
      </trkpt>
      <trkpt lat="45.02811" lon="5.09369">
        <ele>223.83099365234</ele>
        <time>2010-10-30T08:20:17Z</time>
      </trkpt>
      <trkpt lat="45.02795" lon="5.09364">
        <ele>224.69000244141</ele>
        <time>2010-10-30T08:20:22Z</time>
      </trkpt>
      <trkpt lat="45.02768" lon="5.0936">
        <ele>226.91400146484</ele>
        <time>2010-10-30T08:20:29Z</time>
      </trkpt>
      <trkpt lat="45.02758" lon="5.09359">
        <ele>228.26699829102</ele>
        <time>2010-10-30T08:20:32Z</time>
      </trkpt>
      <trkpt lat="45.02734" lon="5.09352">
        <ele>230.29400634766</ele>
        <time>2010-10-30T08:20:39Z</time>
      </trkpt>
      <trkpt lat="45.02728" lon="5.09348">
        <ele>231.20300292969</ele>
        <time>2010-10-30T08:20:41Z</time>
      </trkpt>
      <trkpt lat="45.02707" lon="5.09332">
        <ele>231.88200378418</ele>
        <time>2010-10-30T08:20:47Z</time>
      </trkpt>
      <trkpt lat="45.02686" lon="5.09312">
        <ele>232.16200256348</ele>
        <time>2010-10-30T08:20:53Z</time>
      </trkpt>
      <trkpt lat="45.0267" lon="5.09298">
        <ele>232.02200317383</ele>
        <time>2010-10-30T08:20:57Z</time>
      </trkpt>
      <trkpt lat="45.02639" lon="5.09276">
        <ele>232.25500488281</ele>
        <time>2010-10-30T08:21:04Z</time>
      </trkpt>
      <trkpt lat="45.02604" lon="5.09265">
        <ele>232.71200561523</ele>
        <time>2010-10-30T08:21:11Z</time>
      </trkpt>
      <trkpt lat="45.02588" lon="5.09263">
        <ele>233.27699279785</ele>
        <time>2010-10-30T08:21:14Z</time>
      </trkpt>
      <trkpt lat="45.02547" lon="5.09267">
        <ele>234.06199645996</ele>
        <time>2010-10-30T08:21:22Z</time>
      </trkpt>
      <trkpt lat="45.02521" lon="5.09271">
        <ele>234.23399353027</ele>
        <time>2010-10-30T08:21:27Z</time>
      </trkpt>
      <trkpt lat="45.02507" lon="5.09291">
        <ele>233.78500366211</ele>
        <time>2010-10-30T08:21:31Z</time>
      </trkpt>
      <trkpt lat="45.02508" lon="5.09306">
        <ele>233.80200195312</ele>
        <time>2010-10-30T08:21:33Z</time>
      </trkpt>
      <trkpt lat="45.02515" lon="5.09376">
        <ele>235.1369934082</ele>
        <time>2010-10-30T08:21:42Z</time>
      </trkpt>
      <trkpt lat="45.02514" lon="5.09406">
        <ele>236.3630065918</ele>
        <time>2010-10-30T08:21:46Z</time>
      </trkpt>
      <trkpt lat="45.02502" lon="5.09445">
        <ele>237.81700134277</ele>
        <time>2010-10-30T08:21:52Z</time>
      </trkpt>
      <trkpt lat="45.02473" lon="5.09497">
        <ele>238.63600158691</ele>
        <time>2010-10-30T08:22:01Z</time>
      </trkpt>
      <trkpt lat="45.02449" lon="5.09533">
        <ele>238.89199829102</ele>
        <time>2010-10-30T08:22:07Z</time>
      </trkpt>
      <trkpt lat="45.02414" lon="5.0958">
        <ele>239.22200012207</ele>
        <time>2010-10-30T08:22:15Z</time>
      </trkpt>
      <trkpt lat="45.02375" lon="5.09628">
        <ele>240.05999755859</ele>
        <time>2010-10-30T08:22:23Z</time>
      </trkpt>
      <trkpt lat="45.02345" lon="5.09672">
        <ele>240.34800720215</ele>
        <time>2010-10-30T08:22:30Z</time>
      </trkpt>
      <trkpt lat="45.02319" lon="5.09715">
        <ele>240.9640045166</ele>
        <time>2010-10-30T08:22:37Z</time>
      </trkpt>
      <trkpt lat="45.02297" lon="5.09762">
        <ele>241.60600280762</ele>
        <time>2010-10-30T08:22:44Z</time>
      </trkpt>
      <trkpt lat="45.02282" lon="5.09815">
        <ele>242.18699645996</ele>
        <time>2010-10-30T08:22:51Z</time>
      </trkpt>
      <trkpt lat="45.02275" lon="5.0988">
        <ele>242.77400207519</ele>
        <time>2010-10-30T08:22:59Z</time>
      </trkpt>
      <trkpt lat="45.0227" lon="5.09986">
        <ele>244.2140045166</ele>
        <time>2010-10-30T08:23:12Z</time>
      </trkpt>
      <trkpt lat="45.02269" lon="5.1005">
        <ele>245.21499633789</ele>
        <time>2010-10-30T08:23:20Z</time>
      </trkpt>
      <trkpt lat="45.02266" lon="5.10091">
        <ele>245.44200134277</ele>
        <time>2010-10-30T08:23:25Z</time>
      </trkpt>
      <trkpt lat="45.02262" lon="5.1014">
        <ele>246.59199523926</ele>
        <time>2010-10-30T08:23:31Z</time>
      </trkpt>
      <trkpt lat="45.02257" lon="5.10205">
        <ele>247.62199401856</ele>
        <time>2010-10-30T08:23:39Z</time>
      </trkpt>
      <trkpt lat="45.02245" lon="5.10241">
        <ele>248.08999633789</ele>
        <time>2010-10-30T08:23:44Z</time>
      </trkpt>
      <trkpt lat="45.02241" lon="5.10246">
        <ele>248.29100036621</ele>
        <time>2010-10-30T08:23:45Z</time>
      </trkpt>
      <trkpt lat="45.02205" lon="5.10286">
        <ele>248.35699462891</ele>
        <time>2010-10-30T08:23:53Z</time>
      </trkpt>
      <trkpt lat="45.02168" lon="5.10326">
        <ele>249.37899780273</ele>
        <time>2010-10-30T08:24:01Z</time>
      </trkpt>
      <trkpt lat="45.02142" lon="5.10356">
        <ele>249.98500061035</ele>
        <time>2010-10-30T08:24:07Z</time>
      </trkpt>
      <trkpt lat="45.02108" lon="5.10397">
        <ele>249.98699951172</ele>
        <time>2010-10-30T08:24:15Z</time>
      </trkpt>
      <trkpt lat="45.02093" lon="5.10417">
        <ele>250.71099853516</ele>
        <time>2010-10-30T08:24:19Z</time>
      </trkpt>
      <trkpt lat="45.02075" lon="5.10421">
        <ele>250.66400146484</ele>
        <time>2010-10-30T08:24:23Z</time>
      </trkpt>
      <trkpt lat="45.02062" lon="5.10408">
        <ele>251.80200195312</ele>
        <time>2010-10-30T08:24:26Z</time>
      </trkpt>
      <trkpt lat="45.02039" lon="5.10381">
        <ele>252.62699890137</ele>
        <time>2010-10-30T08:24:32Z</time>
      </trkpt>
      <trkpt lat="45.02012" lon="5.10353">
        <ele>254.07499694824</ele>
        <time>2010-10-30T08:24:39Z</time>
      </trkpt>
      <trkpt lat="45.01995" lon="5.1034">
        <ele>255.03399658203</ele>
        <time>2010-10-30T08:24:43Z</time>
      </trkpt>
      <trkpt lat="45.01983" lon="5.10332">
        <ele>256.48498535156</ele>
        <time>2010-10-30T08:24:46Z</time>
      </trkpt>
      <trkpt lat="45.01956" lon="5.10313">
        <ele>260.11499023438</ele>
        <time>2010-10-30T08:24:53Z</time>
      </trkpt>
      <trkpt lat="45.01933" lon="5.103">
        <ele>261.14001464844</ele>
        <time>2010-10-30T08:24:59Z</time>
      </trkpt>
      <trkpt lat="45.01902" lon="5.10278">
        <ele>263.6960144043</ele>
        <time>2010-10-30T08:25:07Z</time>
      </trkpt>
      <trkpt lat="45.01896" lon="5.10273">
        <ele>264.79998779297</ele>
        <time>2010-10-30T08:25:09Z</time>
      </trkpt>
      <trkpt lat="45.01887" lon="5.10269">
        <ele>265.9049987793</ele>
        <time>2010-10-30T08:25:11Z</time>
      </trkpt>
      <trkpt lat="45.01877" lon="5.10267">
        <ele>266.58401489258</ele>
        <time>2010-10-30T08:25:13Z</time>
      </trkpt>
      <trkpt lat="45.01867" lon="5.10268">
        <ele>267.23400878906</ele>
        <time>2010-10-30T08:25:15Z</time>
      </trkpt>
      <trkpt lat="45.01833" lon="5.10272">
        <ele>269.60400390625</ele>
        <time>2010-10-30T08:25:21Z</time>
      </trkpt>
      <trkpt lat="45.01799" lon="5.10277">
        <ele>271.03900146484</ele>
        <time>2010-10-30T08:25:27Z</time>
      </trkpt>
      <trkpt lat="45.01785" lon="5.10279">
        <ele>271.90798950195</ele>
        <time>2010-10-30T08:25:30Z</time>
      </trkpt>
      <trkpt lat="45.0178" lon="5.10281">
        <ele>272.05099487305</ele>
        <time>2010-10-30T08:25:31Z</time>
      </trkpt>
      <trkpt lat="45.01767" lon="5.10283">
        <ele>271.91101074219</ele>
        <time>2010-10-30T08:25:34Z</time>
      </trkpt>
      <trkpt lat="45.01741" lon="5.10292">
        <ele>273.34298706055</ele>
        <time>2010-10-30T08:25:41Z</time>
      </trkpt>
      <trkpt lat="45.0172" lon="5.10297">
        <ele>272.57901000977</ele>
        <time>2010-10-30T08:25:46Z</time>
      </trkpt>
      <trkpt lat="45.01701" lon="5.10303">
        <ele>272.5</ele>
        <time>2010-10-30T08:25:50Z</time>
      </trkpt>
      <trkpt lat="45.01686" lon="5.1032">
        <ele>272.90899658203</ele>
        <time>2010-10-30T08:25:54Z</time>
      </trkpt>
      <trkpt lat="45.01683" lon="5.10334">
        <ele>272.77200317383</ele>
        <time>2010-10-30T08:25:56Z</time>
      </trkpt>
      <trkpt lat="45.01674" lon="5.10397">
        <ele>270.24899291992</ele>
        <time>2010-10-30T08:26:04Z</time>
      </trkpt>
      <trkpt lat="45.01666" lon="5.10451">
        <ele>266.83999633789</ele>
        <time>2010-10-30T08:26:09Z</time>
      </trkpt>
      <trkpt lat="45.01657" lon="5.1051">
        <ele>264.98498535156</ele>
        <time>2010-10-30T08:26:14Z</time>
      </trkpt>
      <trkpt lat="45.01654" lon="5.10535">
        <ele>264.20599365234</ele>
        <time>2010-10-30T08:26:16Z</time>
      </trkpt>
      <trkpt lat="45.01644" lon="5.10611">
        <ele>262.10800170898</ele>
        <time>2010-10-30T08:26:22Z</time>
      </trkpt>
      <trkpt lat="45.01638" lon="5.10649">
        <ele>261.30999755859</ele>
        <time>2010-10-30T08:26:25Z</time>
      </trkpt>
      <trkpt lat="45.01631" lon="5.10711">
        <ele>261.5</ele>
        <time>2010-10-30T08:26:30Z</time>
      </trkpt>
      <trkpt lat="45.01622" lon="5.10779">
        <ele>261.34899902344</ele>
        <time>2010-10-30T08:26:36Z</time>
      </trkpt>
      <trkpt lat="45.01616" lon="5.10827">
        <ele>262.25</ele>
        <time>2010-10-30T08:26:41Z</time>
      </trkpt>
      <trkpt lat="45.01606" lon="5.10899">
        <ele>263.92001342773</ele>
        <time>2010-10-30T08:26:49Z</time>
      </trkpt>
      <trkpt lat="45.01596" lon="5.10958">
        <ele>265.25500488281</ele>
        <time>2010-10-30T08:26:56Z</time>
      </trkpt>
      <trkpt lat="45.01576" lon="5.11013">
        <ele>265.60598754883</ele>
        <time>2010-10-30T08:27:03Z</time>
      </trkpt>
      <trkpt lat="45.01553" lon="5.11057">
        <ele>266.15301513672</ele>
        <time>2010-10-30T08:27:09Z</time>
      </trkpt>
      <trkpt lat="45.01527" lon="5.11105">
        <ele>267.24700927734</ele>
        <time>2010-10-30T08:27:16Z</time>
      </trkpt>
      <trkpt lat="45.01498" lon="5.11161">
        <ele>266.65798950195</ele>
        <time>2010-10-30T08:27:24Z</time>
      </trkpt>
      <trkpt lat="45.01476" lon="5.11218">
        <ele>265.69100952148</ele>
        <time>2010-10-30T08:27:31Z</time>
      </trkpt>
      <trkpt lat="45.01463" lon="5.11288">
        <ele>264.76000976562</ele>
        <time>2010-10-30T08:27:38Z</time>
      </trkpt>
      <trkpt lat="45.01458" lon="5.11354">
        <ele>267.10699462891</ele>
        <time>2010-10-30T08:27:45Z</time>
      </trkpt>
      <trkpt lat="45.01465" lon="5.11412">
        <ele>268.8030090332</ele>
        <time>2010-10-30T08:27:52Z</time>
      </trkpt>
      <trkpt lat="45.01472" lon="5.11442">
        <ele>269.97900390625</ele>
        <time>2010-10-30T08:27:56Z</time>
      </trkpt>
      <trkpt lat="45.01468" lon="5.11469">
        <ele>270.81900024414</ele>
        <time>2010-10-30T08:28:00Z</time>
      </trkpt>
      <trkpt lat="45.01463" lon="5.11471">
        <ele>270.81900024414</ele>
        <time>2010-10-30T08:28:01Z</time>
      </trkpt>
      <trkpt lat="45.01453" lon="5.11476">
        <ele>272.60299682617</ele>
        <time>2010-10-30T08:28:03Z</time>
      </trkpt>
      <trkpt lat="45.01419" lon="5.11496">
        <ele>273.17599487305</ele>
        <time>2010-10-30T08:28:10Z</time>
      </trkpt>
      <trkpt lat="45.0141" lon="5.11504">
        <ele>273.26300048828</ele>
        <time>2010-10-30T08:28:12Z</time>
      </trkpt>
      <trkpt lat="45.01365" lon="5.11535">
        <ele>274.40200805664</ele>
        <time>2010-10-30T08:28:21Z</time>
      </trkpt>
      <trkpt lat="45.01321" lon="5.11566">
        <ele>275.47500610352</ele>
        <time>2010-10-30T08:28:30Z</time>
      </trkpt>
      <trkpt lat="45.01311" lon="5.11573">
        <ele>275.36700439453</ele>
        <time>2010-10-30T08:28:32Z</time>
      </trkpt>
      <trkpt lat="45.01269" lon="5.11605">
        <ele>276.70401000977</ele>
        <time>2010-10-30T08:28:41Z</time>
      </trkpt>
      <trkpt lat="45.01228" lon="5.11642">
        <ele>278.12298583984</ele>
        <time>2010-10-30T08:28:50Z</time>
      </trkpt>
      <trkpt lat="45.01183" lon="5.1169">
        <ele>279.88198852539</ele>
        <time>2010-10-30T08:29:00Z</time>
      </trkpt>
      <trkpt lat="45.01151" lon="5.11722">
        <ele>280.61199951172</ele>
        <time>2010-10-30T08:29:07Z</time>
      </trkpt>
      <trkpt lat="45.01114" lon="5.11756">
        <ele>281.95098876953</ele>
        <time>2010-10-30T08:29:15Z</time>
      </trkpt>
      <trkpt lat="45.01074" lon="5.11801">
        <ele>282.91299438477</ele>
        <time>2010-10-30T08:29:24Z</time>
      </trkpt>
      <trkpt lat="45.01034" lon="5.11849">
        <ele>284.15200805664</ele>
        <time>2010-10-30T08:29:33Z</time>
      </trkpt>
      <trkpt lat="45.00991" lon="5.11902">
        <ele>284.76501464844</ele>
        <time>2010-10-30T08:29:43Z</time>
      </trkpt>
      <trkpt lat="45.00962" lon="5.11937">
        <ele>286.93499755859</ele>
        <time>2010-10-30T08:29:50Z</time>
      </trkpt>
      <trkpt lat="45.00927" lon="5.11979">
        <ele>288.55499267578</ele>
        <time>2010-10-30T08:29:58Z</time>
      </trkpt>
      <trkpt lat="45.00886" lon="5.12035">
        <ele>290.12100219727</ele>
        <time>2010-10-30T08:30:08Z</time>
      </trkpt>
      <trkpt lat="45.00854" lon="5.12079">
        <ele>291.36898803711</ele>
        <time>2010-10-30T08:30:16Z</time>
      </trkpt>
      <trkpt lat="45.00821" lon="5.12123">
        <ele>292.58898925781</ele>
        <time>2010-10-30T08:30:24Z</time>
      </trkpt>
      <trkpt lat="45.00796" lon="5.12157">
        <ele>293.13400268555</ele>
        <time>2010-10-30T08:30:30Z</time>
      </trkpt>
      <trkpt lat="45.00758" lon="5.12207">
        <ele>294.68499755859</ele>
        <time>2010-10-30T08:30:39Z</time>
      </trkpt>
      <trkpt lat="45.00729" lon="5.12249">
        <ele>295.76800537109</ele>
        <time>2010-10-30T08:30:47Z</time>
      </trkpt>
      <trkpt lat="45.00719" lon="5.12274">
        <ele>296.35998535156</ele>
        <time>2010-10-30T08:30:52Z</time>
      </trkpt>
      <trkpt lat="45.00721" lon="5.12293">
        <ele>295.95300292969</ele>
        <time>2010-10-30T08:30:56Z</time>
      </trkpt>
      <trkpt lat="45.00729" lon="5.12317">
        <ele>295.1549987793</ele>
        <time>2010-10-30T08:31:00Z</time>
      </trkpt>
      <trkpt lat="45.00736" lon="5.1234">
        <ele>293.47500610352</ele>
        <time>2010-10-30T08:31:03Z</time>
      </trkpt>
      <trkpt lat="45.00742" lon="5.12358">
        <ele>292.35900878906</ele>
        <time>2010-10-30T08:31:05Z</time>
      </trkpt>
      <trkpt lat="45.00758" lon="5.12403">
        <ele>291.81500244141</ele>
        <time>2010-10-30T08:31:10Z</time>
      </trkpt>
      <trkpt lat="45.0078" lon="5.12433">
        <ele>292.03698730469</ele>
        <time>2010-10-30T08:31:15Z</time>
      </trkpt>
      <trkpt lat="45.00791" lon="5.1244">
        <ele>292.44400024414</ele>
        <time>2010-10-30T08:31:17Z</time>
      </trkpt>
      <trkpt lat="45.00808" lon="5.12453">
        <ele>294.22198486328</ele>
        <time>2010-10-30T08:31:20Z</time>
      </trkpt>
      <trkpt lat="45.00831" lon="5.12483">
        <ele>294.75900268555</ele>
        <time>2010-10-30T08:31:25Z</time>
      </trkpt>
      <trkpt lat="45.00864" lon="5.12544">
        <ele>295.89999389648</ele>
        <time>2010-10-30T08:31:34Z</time>
      </trkpt>
      <trkpt lat="45.00897" lon="5.12607">
        <ele>295.83401489258</ele>
        <time>2010-10-30T08:31:43Z</time>
      </trkpt>
      <trkpt lat="45.00939" lon="5.12672">
        <ele>296.59201049805</ele>
        <time>2010-10-30T08:31:53Z</time>
      </trkpt>
      <trkpt lat="45.00964" lon="5.12708">
        <ele>296.19299316406</ele>
        <time>2010-10-30T08:31:59Z</time>
      </trkpt>
      <trkpt lat="45.00993" lon="5.1275">
        <ele>295.12100219727</ele>
        <time>2010-10-30T08:32:06Z</time>
      </trkpt>
      <trkpt lat="45.01006" lon="5.12769">
        <ele>294.99099731445</ele>
        <time>2010-10-30T08:32:09Z</time>
      </trkpt>
      <trkpt lat="45.0105" lon="5.12818">
        <ele>290.86700439453</ele>
        <time>2010-10-30T08:32:17Z</time>
      </trkpt>
      <trkpt lat="45.0108" lon="5.12824">
        <ele>288.38299560547</ele>
        <time>2010-10-30T08:32:21Z</time>
      </trkpt>
      <trkpt lat="45.01109" lon="5.12835">
        <ele>285.5950012207</ele>
        <time>2010-10-30T08:32:25Z</time>
      </trkpt>
      <trkpt lat="45.01131" lon="5.12871">
        <ele>281.98001098633</ele>
        <time>2010-10-30T08:32:29Z</time>
      </trkpt>
      <trkpt lat="45.01162" lon="5.12898">
        <ele>282.56698608398</ele>
        <time>2010-10-30T08:32:33Z</time>
      </trkpt>
      <trkpt lat="45.0117" lon="5.12902">
        <ele>282.68600463867</ele>
        <time>2010-10-30T08:32:34Z</time>
      </trkpt>
      <trkpt lat="45.01192" lon="5.12909">
        <ele>284.18099975586</ele>
        <time>2010-10-30T08:32:37Z</time>
      </trkpt>
      <trkpt lat="45.01222" lon="5.12915">
        <ele>286.5539855957</ele>
        <time>2010-10-30T08:32:42Z</time>
      </trkpt>
      <trkpt lat="45.01233" lon="5.12916">
        <ele>287.3630065918</ele>
        <time>2010-10-30T08:32:44Z</time>
      </trkpt>
      <trkpt lat="45.0127" lon="5.12922">
        <ele>289.68798828125</ele>
        <time>2010-10-30T08:32:51Z</time>
      </trkpt>
      <trkpt lat="45.01292" lon="5.12922">
        <ele>288.86099243164</ele>
        <time>2010-10-30T08:32:55Z</time>
      </trkpt>
      <trkpt lat="45.01322" lon="5.12912">
        <ele>287.92300415039</ele>
        <time>2010-10-30T08:33:00Z</time>
      </trkpt>
      <trkpt lat="45.01367" lon="5.12889">
        <ele>287.28399658203</ele>
        <time>2010-10-30T08:33:07Z</time>
      </trkpt>
      <trkpt lat="45.01425" lon="5.12852">
        <ele>286.59698486328</ele>
        <time>2010-10-30T08:33:16Z</time>
      </trkpt>
      <trkpt lat="45.01464" lon="5.1283">
        <ele>285.48699951172</ele>
        <time>2010-10-30T08:33:22Z</time>
      </trkpt>
      <trkpt lat="45.015" lon="5.12803">
        <ele>284.43499755859</ele>
        <time>2010-10-30T08:33:28Z</time>
      </trkpt>
      <trkpt lat="45.01509" lon="5.12789">
        <ele>284.32699584961</ele>
        <time>2010-10-30T08:33:30Z</time>
      </trkpt>
      <trkpt lat="45.01536" lon="5.12733">
        <ele>282.17098999023</ele>
        <time>2010-10-30T08:33:37Z</time>
      </trkpt>
      <trkpt lat="45.01566" lon="5.12666">
        <ele>281.99398803711</ele>
        <time>2010-10-30T08:33:45Z</time>
      </trkpt>
      <trkpt lat="45.01589" lon="5.12633">
        <ele>280.95999145508</ele>
        <time>2010-10-30T08:33:50Z</time>
      </trkpt>
      <trkpt lat="45.016" lon="5.12601">
        <ele>280.39801025391</ele>
        <time>2010-10-30T08:33:54Z</time>
      </trkpt>
      <trkpt lat="45.01613" lon="5.12521">
        <ele>279.00500488281</ele>
        <time>2010-10-30T08:34:02Z</time>
      </trkpt>
      <trkpt lat="45.01625" lon="5.12446">
        <ele>278.19400024414</ele>
        <time>2010-10-30T08:34:09Z</time>
      </trkpt>
      <trkpt lat="45.01639" lon="5.1237">
        <ele>277.22399902344</ele>
        <time>2010-10-30T08:34:16Z</time>
      </trkpt>
      <trkpt lat="45.01659" lon="5.12287">
        <ele>275.67098999023</ele>
        <time>2010-10-30T08:34:24Z</time>
      </trkpt>
      <trkpt lat="45.01679" lon="5.12213">
        <ele>274.06399536133</ele>
        <time>2010-10-30T08:34:31Z</time>
      </trkpt>
      <trkpt lat="45.01708" lon="5.12117">
        <ele>271.91101074219</ele>
        <time>2010-10-30T08:34:40Z</time>
      </trkpt>
      <trkpt lat="45.01734" lon="5.12063">
        <ele>270.91400146484</ele>
        <time>2010-10-30T08:34:46Z</time>
      </trkpt>
      <trkpt lat="45.01768" lon="5.11992">
        <ele>269.4289855957</ele>
        <time>2010-10-30T08:34:54Z</time>
      </trkpt>
      <trkpt lat="45.01803" lon="5.11909">
        <ele>267.93899536133</ele>
        <time>2010-10-30T08:35:03Z</time>
      </trkpt>
      <trkpt lat="45.01836" lon="5.11834">
        <ele>266.63900756836</ele>
        <time>2010-10-30T08:35:11Z</time>
      </trkpt>
      <trkpt lat="45.0187" lon="5.11783">
        <ele>264.11801147461</ele>
        <time>2010-10-30T08:35:17Z</time>
      </trkpt>
      <trkpt lat="45.01885" lon="5.1176">
        <ele>264.72601318359</ele>
        <time>2010-10-30T08:35:20Z</time>
      </trkpt>
      <trkpt lat="45.0192" lon="5.11735">
        <ele>264.23699951172</ele>
        <time>2010-10-30T08:35:25Z</time>
      </trkpt>
      <trkpt lat="45.01983" lon="5.11729">
        <ele>263.01599121094</ele>
        <time>2010-10-30T08:35:33Z</time>
      </trkpt>
      <trkpt lat="45.02047" lon="5.11725">
        <ele>260.48001098633</ele>
        <time>2010-10-30T08:35:41Z</time>
      </trkpt>
      <trkpt lat="45.02113" lon="5.1172">
        <ele>260.20199584961</ele>
        <time>2010-10-30T08:35:49Z</time>
      </trkpt>
      <trkpt lat="45.02162" lon="5.11708">
        <ele>259.84298706055</ele>
        <time>2010-10-30T08:35:55Z</time>
      </trkpt>
      <trkpt lat="45.02217" lon="5.11683">
        <ele>257.25399780273</ele>
        <time>2010-10-30T08:36:02Z</time>
      </trkpt>
      <trkpt lat="45.02233" lon="5.11671">
        <ele>256.14401245117</ele>
        <time>2010-10-30T08:36:04Z</time>
      </trkpt>
      <trkpt lat="45.02264" lon="5.11641">
        <ele>254.34199523926</ele>
        <time>2010-10-30T08:36:08Z</time>
      </trkpt>
      <trkpt lat="45.02315" lon="5.11581">
        <ele>251.7440032959</ele>
        <time>2010-10-30T08:36:15Z</time>
      </trkpt>
      <trkpt lat="45.02335" lon="5.11552">
        <ele>250.12699890137</ele>
        <time>2010-10-30T08:36:18Z</time>
      </trkpt>
      <trkpt lat="45.02382" lon="5.11488">
        <ele>247.07000732422</ele>
        <time>2010-10-30T08:36:25Z</time>
      </trkpt>
      <trkpt lat="45.02428" lon="5.11427">
        <ele>243.97300720215</ele>
        <time>2010-10-30T08:36:32Z</time>
      </trkpt>
      <trkpt lat="45.02442" lon="5.11409">
        <ele>243.41600036621</ele>
        <time>2010-10-30T08:36:34Z</time>
      </trkpt>
      <trkpt lat="45.02457" lon="5.11391">
        <ele>242.52499389648</ele>
        <time>2010-10-30T08:36:36Z</time>
      </trkpt>
      <trkpt lat="45.02472" lon="5.11374">
        <ele>242.45399475098</ele>
        <time>2010-10-30T08:36:38Z</time>
      </trkpt>
      <trkpt lat="45.02498" lon="5.11338">
        <ele>241.63000488281</ele>
        <time>2010-10-30T08:36:42Z</time>
      </trkpt>
      <trkpt lat="45.02522" lon="5.11274">
        <ele>241.36500549316</ele>
        <time>2010-10-30T08:36:48Z</time>
      </trkpt>
      <trkpt lat="45.02539" lon="5.11235">
        <ele>241.26499938965</ele>
        <time>2010-10-30T08:36:52Z</time>
      </trkpt>
      <trkpt lat="45.02554" lon="5.11207">
        <ele>241.77799987793</ele>
        <time>2010-10-30T08:36:55Z</time>
      </trkpt>
      <trkpt lat="45.02564" lon="5.11188">
        <ele>242.33000183106</ele>
        <time>2010-10-30T08:36:57Z</time>
      </trkpt>
      <trkpt lat="45.02569" lon="5.11178">
        <ele>242.44900512695</ele>
        <time>2010-10-30T08:36:58Z</time>
      </trkpt>
      <trkpt lat="45.02593" lon="5.11116">
        <ele>242.27699279785</ele>
        <time>2010-10-30T08:37:04Z</time>
      </trkpt>
      <trkpt lat="45.02627" lon="5.11034">
        <ele>242.62600708008</ele>
        <time>2010-10-30T08:37:12Z</time>
      </trkpt>
      <trkpt lat="45.02652" lon="5.10974">
        <ele>242.4940032959</ele>
        <time>2010-10-30T08:37:18Z</time>
      </trkpt>
      <trkpt lat="45.02678" lon="5.10889">
        <ele>242.85600280762</ele>
        <time>2010-10-30T08:37:26Z</time>
      </trkpt>
      <trkpt lat="45.02703" lon="5.10794">
        <ele>242.41999816894</ele>
        <time>2010-10-30T08:37:35Z</time>
      </trkpt>
      <trkpt lat="45.02722" lon="5.10686">
        <ele>243.52400207519</ele>
        <time>2010-10-30T08:37:45Z</time>
      </trkpt>
      <trkpt lat="45.02726" lon="5.10664">
        <ele>243.69299316406</ele>
        <time>2010-10-30T08:37:47Z</time>
      </trkpt>
      <trkpt lat="45.02754" lon="5.106">
        <ele>243.09899902344</ele>
        <time>2010-10-30T08:37:54Z</time>
      </trkpt>
      <trkpt lat="45.02772" lon="5.10564">
        <ele>241.67700195312</ele>
        <time>2010-10-30T08:37:58Z</time>
      </trkpt>
      <trkpt lat="45.028" lon="5.10508">
        <ele>240.06799316406</ele>
        <time>2010-10-30T08:38:04Z</time>
      </trkpt>
      <trkpt lat="45.02826" lon="5.10448">
        <ele>238.20500183106</ele>
        <time>2010-10-30T08:38:10Z</time>
      </trkpt>
      <trkpt lat="45.02843" lon="5.10396">
        <ele>237.20399475098</ele>
        <time>2010-10-30T08:38:15Z</time>
      </trkpt>
      <trkpt lat="45.0285" lon="5.10375">
        <ele>236.10400390625</ele>
        <time>2010-10-30T08:38:17Z</time>
      </trkpt>
      <trkpt lat="45.02858" lon="5.10353">
        <ele>235.27699279785</ele>
        <time>2010-10-30T08:38:19Z</time>
      </trkpt>
      <trkpt lat="45.02861" lon="5.10342">
        <ele>234.83099365234</ele>
        <time>2010-10-30T08:38:20Z</time>
      </trkpt>
      <trkpt lat="45.02888" lon="5.10269">
        <ele>231.83700561523</ele>
        <time>2010-10-30T08:38:26Z</time>
      </trkpt>
      <trkpt lat="45.02908" lon="5.10219">
        <ele>229.12100219727</ele>
        <time>2010-10-30T08:38:30Z</time>
      </trkpt>
      <trkpt lat="45.0294" lon="5.10126">
        <ele>224.50500488281</ele>
        <time>2010-10-30T08:38:37Z</time>
      </trkpt>
      <trkpt lat="45.02955" lon="5.10036">
        <ele>220.46499633789</ele>
        <time>2010-10-30T08:38:43Z</time>
      </trkpt>
      <trkpt lat="45.02958" lon="5.10022">
        <ele>219.41799926758</ele>
        <time>2010-10-30T08:38:44Z</time>
      </trkpt>
      <trkpt lat="45.02977" lon="5.09972">
        <ele>218.43400573731</ele>
        <time>2010-10-30T08:38:48Z</time>
      </trkpt>
      <trkpt lat="45.03005" lon="5.09952">
        <ele>215.39900207519</ele>
        <time>2010-10-30T08:38:51Z</time>
      </trkpt>
      <trkpt lat="45.03016" lon="5.09949">
        <ele>214.49299621582</ele>
        <time>2010-10-30T08:38:52Z</time>
      </trkpt>
      <trkpt lat="45.0307" lon="5.09938">
        <ele>211.17199707031</ele>
        <time>2010-10-30T08:38:57Z</time>
      </trkpt>
      <trkpt lat="45.03115" lon="5.09927">
        <ele>207.79499816894</ele>
        <time>2010-10-30T08:39:01Z</time>
      </trkpt>
      <trkpt lat="45.03148" lon="5.09918">
        <ele>207.32200622559</ele>
        <time>2010-10-30T08:39:04Z</time>
      </trkpt>
      <trkpt lat="45.03206" lon="5.09883">
        <ele>205.74899291992</ele>
        <time>2010-10-30T08:39:10Z</time>
      </trkpt>
      <trkpt lat="45.03254" lon="5.09835">
        <ele>204.76400756836</ele>
        <time>2010-10-30T08:39:16Z</time>
      </trkpt>
      <trkpt lat="45.03311" lon="5.0977">
        <ele>203.51699829102</ele>
        <time>2010-10-30T08:39:24Z</time>
      </trkpt>
      <trkpt lat="45.03331" lon="5.09748">
        <ele>202.95100402832</ele>
        <time>2010-10-30T08:39:27Z</time>
      </trkpt>
      <trkpt lat="45.03352" lon="5.09724">
        <ele>201.28700256348</ele>
        <time>2010-10-30T08:39:30Z</time>
      </trkpt>
      <trkpt lat="45.0336" lon="5.09716">
        <ele>201.11199951172</ele>
        <time>2010-10-30T08:39:31Z</time>
      </trkpt>
      <trkpt lat="45.03374" lon="5.09701">
        <ele>200.30900573731</ele>
        <time>2010-10-30T08:39:33Z</time>
      </trkpt>
      <trkpt lat="45.03402" lon="5.09669">
        <ele>198.70799255371</ele>
        <time>2010-10-30T08:39:37Z</time>
      </trkpt>
      <trkpt lat="45.03408" lon="5.09661">
        <ele>198.27200317383</ele>
        <time>2010-10-30T08:39:38Z</time>
      </trkpt>
      <trkpt lat="45.03455" lon="5.09611">
        <ele>195.58399963379</ele>
        <time>2010-10-30T08:39:45Z</time>
      </trkpt>
      <trkpt lat="45.0348" lon="5.096">
        <ele>194.71000671387</ele>
        <time>2010-10-30T08:39:49Z</time>
      </trkpt>
      <trkpt lat="45.03492" lon="5.09598">
        <ele>194.59100341797</ele>
        <time>2010-10-30T08:39:53Z</time>
      </trkpt>
      <trkpt lat="45.03495" lon="5.09597">
        <ele>194.42999267578</ele>
        <time>2010-10-30T08:39:54Z</time>
      </trkpt>
      <trkpt lat="45.03501" lon="5.09572">
        <ele>193.3809967041</ele>
        <time>2010-10-30T08:39:58Z</time>
      </trkpt>
      <trkpt lat="45.03502" lon="5.09544">
        <ele>192.85800170898</ele>
        <time>2010-10-30T08:40:01Z</time>
      </trkpt>
      <trkpt lat="45.03506" lon="5.09493">
        <ele>192.82099914551</ele>
        <time>2010-10-30T08:40:06Z</time>
      </trkpt>
      <trkpt lat="45.03508" lon="5.0947">
        <ele>192.66200256348</ele>
        <time>2010-10-30T08:40:08Z</time>
      </trkpt>
      <trkpt lat="45.03513" lon="5.0939">
        <ele>193.91999816894</ele>
        <time>2010-10-30T08:40:15Z</time>
      </trkpt>
      <trkpt lat="45.03518" lon="5.09324">
        <ele>194.61999511719</ele>
        <time>2010-10-30T08:40:21Z</time>
      </trkpt>
      <trkpt lat="45.03521" lon="5.09269">
        <ele>195.72700500488</ele>
        <time>2010-10-30T08:40:26Z</time>
      </trkpt>
      <trkpt lat="45.0353" lon="5.09133">
        <ele>197.49000549316</ele>
        <time>2010-10-30T08:40:39Z</time>
      </trkpt>
      <trkpt lat="45.03538" lon="5.09017">
        <ele>198.87199401856</ele>
        <time>2010-10-30T08:40:50Z</time>
      </trkpt>
      <trkpt lat="45.03547" lon="5.08899">
        <ele>198.81100463867</ele>
        <time>2010-10-30T08:41:01Z</time>
      </trkpt>
      <trkpt lat="45.03555" lon="5.08795">
        <ele>198.69500732422</ele>
        <time>2010-10-30T08:41:11Z</time>
      </trkpt>
      <trkpt lat="45.03561" lon="5.08738">
        <ele>198.29299926758</ele>
        <time>2010-10-30T08:41:17Z</time>
      </trkpt>
      <trkpt lat="45.03566" lon="5.08675">
        <ele>198.16299438477</ele>
        <time>2010-10-30T08:41:24Z</time>
      </trkpt>
      <trkpt lat="45.03567" lon="5.08666">
        <ele>198.17700195312</ele>
        <time>2010-10-30T08:41:25Z</time>
      </trkpt>
      <trkpt lat="45.03574" lon="5.08648">
        <ele>198.33799743652</ele>
        <time>2010-10-30T08:41:29Z</time>
      </trkpt>
      <trkpt lat="45.03574" lon="5.08648">
        <ele>198.49600219727</ele>
        <time>2010-10-30T08:41:31Z</time>
      </trkpt>
      <trkpt lat="45.03576" lon="5.08647">
        <ele>198.23699951172</ele>
        <time>2010-10-30T08:42:14Z</time>
      </trkpt>
      <trkpt lat="45.03578" lon="5.08645">
        <ele>198.31900024414</ele>
        <time>2010-10-30T08:42:15Z</time>
      </trkpt>
      <trkpt lat="45.03599" lon="5.08643">
        <ele>196.59899902344</ele>
        <time>2010-10-30T08:42:19Z</time>
      </trkpt>
      <trkpt lat="45.0364" lon="5.08648">
        <ele>196.00700378418</ele>
        <time>2010-10-30T08:42:24Z</time>
      </trkpt>
      <trkpt lat="45.03675" lon="5.08656">
        <ele>195.34700012207</ele>
        <time>2010-10-30T08:42:28Z</time>
      </trkpt>
      <trkpt lat="45.0373" lon="5.08668">
        <ele>193.58700561523</ele>
        <time>2010-10-30T08:42:34Z</time>
      </trkpt>
      <trkpt lat="45.03797" lon="5.08685">
        <ele>191.91400146484</ele>
        <time>2010-10-30T08:42:41Z</time>
      </trkpt>
      <trkpt lat="45.03836" lon="5.08696">
        <ele>189.2559967041</ele>
        <time>2010-10-30T08:42:45Z</time>
      </trkpt>
      <trkpt lat="45.03885" lon="5.08706">
        <ele>186.82299804688</ele>
        <time>2010-10-30T08:42:50Z</time>
      </trkpt>
      <trkpt lat="45.0394" lon="5.08701">
        <ele>184.11500549316</ele>
        <time>2010-10-30T08:42:55Z</time>
      </trkpt>
      <trkpt lat="45.04005" lon="5.08682">
        <ele>182.76100158691</ele>
        <time>2010-10-30T08:43:01Z</time>
      </trkpt>
      <trkpt lat="45.04029" lon="5.08674">
        <ele>183.92399597168</ele>
        <time>2010-10-30T08:43:04Z</time>
      </trkpt>
      <trkpt lat="45.04066" lon="5.08663">
        <ele>182.68699645996</ele>
        <time>2010-10-30T08:43:10Z</time>
      </trkpt>
      <trkpt lat="45.04128" lon="5.0864">
        <ele>184.13499450684</ele>
        <time>2010-10-30T08:43:19Z</time>
      </trkpt>
      <trkpt lat="45.04154" lon="5.08635">
        <ele>184.46600341797</ele>
        <time>2010-10-30T08:43:23Z</time>
      </trkpt>
      <trkpt lat="45.04168" lon="5.08631">
        <ele>183.8630065918</ele>
        <time>2010-10-30T08:43:25Z</time>
      </trkpt>
      <trkpt lat="45.04197" lon="5.08621">
        <ele>184.91999816894</ele>
        <time>2010-10-30T08:43:29Z</time>
      </trkpt>
      <trkpt lat="45.04223" lon="5.08598">
        <ele>186.68499755859</ele>
        <time>2010-10-30T08:43:34Z</time>
      </trkpt>
      <trkpt lat="45.04253" lon="5.08556">
        <ele>189.31700134277</ele>
        <time>2010-10-30T08:43:41Z</time>
      </trkpt>
      <trkpt lat="45.04267" lon="5.08522">
        <ele>190.34700012207</ele>
        <time>2010-10-30T08:43:46Z</time>
      </trkpt>
      <trkpt lat="45.04271" lon="5.0851">
        <ele>190.97399902344</ele>
        <time>2010-10-30T08:43:48Z</time>
      </trkpt>
      <trkpt lat="45.04276" lon="5.08498">
        <ele>191.32000732422</ele>
        <time>2010-10-30T08:43:50Z</time>
      </trkpt>
      <trkpt lat="45.04289" lon="5.0848">
        <ele>193.91700744629</ele>
        <time>2010-10-30T08:43:54Z</time>
      </trkpt>
      <trkpt lat="45.04316" lon="5.08455">
        <ele>195.56100463867</ele>
        <time>2010-10-30T08:44:01Z</time>
      </trkpt>
      <trkpt lat="45.04337" lon="5.0845">
        <ele>196.64399719238</ele>
        <time>2010-10-30T08:44:05Z</time>
      </trkpt>
      <trkpt lat="45.04353" lon="5.08462">
        <ele>196.75500488281</ele>
        <time>2010-10-30T08:44:08Z</time>
      </trkpt>
      <trkpt lat="45.04361" lon="5.08486">
        <ele>197.98399353027</ele>
        <time>2010-10-30T08:44:11Z</time>
      </trkpt>
      <trkpt lat="45.04367" lon="5.0855">
        <ele>199.21200561523</ele>
        <time>2010-10-30T08:44:18Z</time>
      </trkpt>
      <trkpt lat="45.0437" lon="5.08569">
        <ele>199.04100036621</ele>
        <time>2010-10-30T08:44:20Z</time>
      </trkpt>
      <trkpt lat="45.04387" lon="5.086">
        <ele>197.75399780273</ele>
        <time>2010-10-30T08:44:24Z</time>
      </trkpt>
      <trkpt lat="45.0441" lon="5.08604">
        <ele>196.75100708008</ele>
        <time>2010-10-30T08:44:27Z</time>
      </trkpt>
      <trkpt lat="45.04506" lon="5.08588">
        <ele>194.94200134277</ele>
        <time>2010-10-30T08:44:38Z</time>
      </trkpt>
      <trkpt lat="45.04582" lon="5.08576">
        <ele>195.875</ele>
        <time>2010-10-30T08:44:47Z</time>
      </trkpt>
      <trkpt lat="45.04654" lon="5.08564">
        <ele>197.98899841309</ele>
        <time>2010-10-30T08:44:56Z</time>
      </trkpt>
      <trkpt lat="45.04697" lon="5.08554">
        <ele>197.77000427246</ele>
        <time>2010-10-30T08:45:02Z</time>
      </trkpt>
      <trkpt lat="45.04745" lon="5.08544">
        <ele>197.86199951172</ele>
        <time>2010-10-30T08:45:09Z</time>
      </trkpt>
      <trkpt lat="45.04792" lon="5.08534">
        <ele>198.33000183106</ele>
        <time>2010-10-30T08:45:16Z</time>
      </trkpt>
      <trkpt lat="45.04814" lon="5.08543">
        <ele>197.71200561523</ele>
        <time>2010-10-30T08:45:20Z</time>
      </trkpt>
      <trkpt lat="45.04824" lon="5.08569">
        <ele>198.07099914551</ele>
        <time>2010-10-30T08:45:23Z</time>
      </trkpt>
      <trkpt lat="45.04826" lon="5.0858">
        <ele>197.89700317383</ele>
        <time>2010-10-30T08:45:24Z</time>
      </trkpt>
      <trkpt lat="45.04835" lon="5.08664">
        <ele>197.91499328613</ele>
        <time>2010-10-30T08:45:31Z</time>
      </trkpt>
      <trkpt lat="45.04849" lon="5.08765">
        <ele>197.92599487305</ele>
        <time>2010-10-30T08:45:40Z</time>
      </trkpt>
      <trkpt lat="45.04877" lon="5.08902">
        <ele>198.31900024414</ele>
        <time>2010-10-30T08:45:52Z</time>
      </trkpt>
      <trkpt lat="45.04895" lon="5.08991">
        <ele>198.86099243164</ele>
        <time>2010-10-30T08:46:00Z</time>
      </trkpt>
      <trkpt lat="45.04906" lon="5.0905">
        <ele>199.28100585938</ele>
        <time>2010-10-30T08:46:06Z</time>
      </trkpt>
      <trkpt lat="45.04908" lon="5.09067">
        <ele>199.38900756836</ele>
        <time>2010-10-30T08:46:08Z</time>
      </trkpt>
      <trkpt lat="45.04919" lon="5.09081">
        <ele>199.41299438477</ele>
        <time>2010-10-30T08:46:11Z</time>
      </trkpt>
      <trkpt lat="45.0493" lon="5.09071">
        <ele>198.35899353027</ele>
        <time>2010-10-30T08:46:13Z</time>
      </trkpt>
      <trkpt lat="45.04948" lon="5.09042">
        <ele>198.04699707031</ele>
        <time>2010-10-30T08:46:17Z</time>
      </trkpt>
      <trkpt lat="45.04996" lon="5.08998">
        <ele>198.02600097656</ele>
        <time>2010-10-30T08:46:25Z</time>
      </trkpt>
      <trkpt lat="45.0504" lon="5.08978">
        <ele>198.13200378418</ele>
        <time>2010-10-30T08:46:31Z</time>
      </trkpt>
      <trkpt lat="45.05085" lon="5.08971">
        <ele>198.1130065918</ele>
        <time>2010-10-30T08:46:37Z</time>
      </trkpt>
      <trkpt lat="45.05093" lon="5.0897">
        <ele>198.17700195312</ele>
        <time>2010-10-30T08:46:38Z</time>
      </trkpt>
      <trkpt lat="45.05106" lon="5.08971">
        <ele>199.59800720215</ele>
        <time>2010-10-30T08:46:40Z</time>
      </trkpt>
      <trkpt lat="45.05125" lon="5.08979">
        <ele>199.86799621582</ele>
        <time>2010-10-30T08:46:43Z</time>
      </trkpt>
      <trkpt lat="45.05142" lon="5.08979">
        <ele>200.48899841309</ele>
        <time>2010-10-30T08:46:46Z</time>
      </trkpt>
      <trkpt lat="45.05157" lon="5.08962">
        <ele>200.58099365234</ele>
        <time>2010-10-30T08:46:49Z</time>
      </trkpt>
      <trkpt lat="45.05164" lon="5.08959">
        <ele>200.44900512695</ele>
        <time>2010-10-30T08:46:50Z</time>
      </trkpt>
      <trkpt lat="45.05226" lon="5.08941">
        <ele>201.55099487305</ele>
        <time>2010-10-30T08:46:59Z</time>
      </trkpt>
      <trkpt lat="45.05286" lon="5.08926">
        <ele>200.69999694824</ele>
        <time>2010-10-30T08:47:07Z</time>
      </trkpt>
      <trkpt lat="45.05339" lon="5.08917">
        <ele>200.72900390625</ele>
        <time>2010-10-30T08:47:14Z</time>
      </trkpt>
      <trkpt lat="45.05378" lon="5.08907">
        <ele>201.47399902344</ele>
        <time>2010-10-30T08:47:20Z</time>
      </trkpt>
      <trkpt lat="45.05383" lon="5.08906">
        <ele>201.65100097656</ele>
        <time>2010-10-30T08:47:21Z</time>
      </trkpt>
      <trkpt lat="45.05402" lon="5.08911">
        <ele>202.61799621582</ele>
        <time>2010-10-30T08:47:25Z</time>
      </trkpt>
      <trkpt lat="45.05424" lon="5.08901">
        <ele>202.6130065918</ele>
        <time>2010-10-30T08:47:29Z</time>
      </trkpt>
      <trkpt lat="45.05429" lon="5.08893">
        <ele>202.64500427246</ele>
        <time>2010-10-30T08:47:30Z</time>
      </trkpt>
      <trkpt lat="45.05457" lon="5.08863">
        <ele>202.2799987793</ele>
        <time>2010-10-30T08:47:35Z</time>
      </trkpt>
      <trkpt lat="45.05478" lon="5.08852">
        <ele>202.51499938965</ele>
        <time>2010-10-30T08:47:38Z</time>
      </trkpt>
      <trkpt lat="45.05515" lon="5.08849">
        <ele>201.56399536133</ele>
        <time>2010-10-30T08:47:43Z</time>
      </trkpt>
      <trkpt lat="45.05561" lon="5.08861">
        <ele>201.95199584961</ele>
        <time>2010-10-30T08:47:50Z</time>
      </trkpt>
      <trkpt lat="45.05585" lon="5.08866">
        <ele>201.66999816894</ele>
        <time>2010-10-30T08:47:54Z</time>
      </trkpt>
      <trkpt lat="45.05597" lon="5.08853">
        <ele>201.27299499512</ele>
        <time>2010-10-30T08:47:58Z</time>
      </trkpt>
      <trkpt lat="45.05597" lon="5.08838">
        <ele>201.20500183106</ele>
        <time>2010-10-30T08:48:00Z</time>
      </trkpt>
      <trkpt lat="45.05588" lon="5.08761">
        <ele>201.70700073242</ele>
        <time>2010-10-30T08:48:09Z</time>
      </trkpt>
      <trkpt lat="45.05581" lon="5.08699">
        <ele>201.25199890137</ele>
        <time>2010-10-30T08:48:16Z</time>
      </trkpt>
      <trkpt lat="45.05567" lon="5.08665">
        <ele>201.21800231934</ele>
        <time>2010-10-30T08:48:20Z</time>
      </trkpt>
      <trkpt lat="45.05523" lon="5.0861">
        <ele>200.88200378418</ele>
        <time>2010-10-30T08:48:28Z</time>
      </trkpt>
      <trkpt lat="45.05495" lon="5.08562">
        <ele>199.96299743652</ele>
        <time>2010-10-30T08:48:34Z</time>
      </trkpt>
      <trkpt lat="45.05458" lon="5.08462">
        <ele>199.65100097656</ele>
        <time>2010-10-30T08:48:45Z</time>
      </trkpt>
      <trkpt lat="45.05427" lon="5.08377">
        <ele>198.85600280762</ele>
        <time>2010-10-30T08:48:54Z</time>
      </trkpt>
      <trkpt lat="45.05397" lon="5.08294">
        <ele>198.73399353027</ele>
        <time>2010-10-30T08:49:03Z</time>
      </trkpt>
      <trkpt lat="45.05378" lon="5.08237">
        <ele>198.02900695801</ele>
        <time>2010-10-30T08:49:09Z</time>
      </trkpt>
      <trkpt lat="45.05377" lon="5.08185">
        <ele>198.37699890137</ele>
        <time>2010-10-30T08:49:14Z</time>
      </trkpt>
      <trkpt lat="45.05393" lon="5.08067">
        <ele>197.75399780273</ele>
        <time>2010-10-30T08:49:26Z</time>
      </trkpt>
      <trkpt lat="45.05397" lon="5.08041">
        <ele>197.50799560547</ele>
        <time>2010-10-30T08:49:29Z</time>
      </trkpt>
      <trkpt lat="45.05409" lon="5.08018">
        <ele>198.78199768066</ele>
        <time>2010-10-30T08:49:33Z</time>
      </trkpt>
      <trkpt lat="45.05429" lon="5.08009">
        <ele>198.90100097656</ele>
        <time>2010-10-30T08:49:37Z</time>
      </trkpt>
      <trkpt lat="45.05436" lon="5.07995">
        <ele>197.7140045166</ele>
        <time>2010-10-30T08:49:39Z</time>
      </trkpt>
      <trkpt lat="45.05457" lon="5.07913">
        <ele>197.30200195312</ele>
        <time>2010-10-30T08:49:48Z</time>
      </trkpt>
      <trkpt lat="45.0547" lon="5.07846">
        <ele>197.31300354004</ele>
        <time>2010-10-30T08:49:55Z</time>
      </trkpt>
      <trkpt lat="45.05479" lon="5.07777">
        <ele>197.59300231934</ele>
        <time>2010-10-30T08:50:02Z</time>
      </trkpt>
      <trkpt lat="45.05497" lon="5.07722">
        <ele>196.94799804688</ele>
        <time>2010-10-30T08:50:08Z</time>
      </trkpt>
      <trkpt lat="45.05514" lon="5.07666">
        <ele>197.36500549316</ele>
        <time>2010-10-30T08:50:14Z</time>
      </trkpt>
      <trkpt lat="45.05529" lon="5.07589">
        <ele>197.21499633789</ele>
        <time>2010-10-30T08:50:22Z</time>
      </trkpt>
      <trkpt lat="45.0554" lon="5.07542">
        <ele>196.55400085449</ele>
        <time>2010-10-30T08:50:27Z</time>
      </trkpt>
      <trkpt lat="45.05554" lon="5.07475">
        <ele>196.60200500488</ele>
        <time>2010-10-30T08:50:34Z</time>
      </trkpt>
      <trkpt lat="45.05556" lon="5.07414">
        <ele>197.11999511719</ele>
        <time>2010-10-30T08:50:40Z</time>
      </trkpt>
      <trkpt lat="45.0556" lon="5.07315">
        <ele>196.65699768066</ele>
        <time>2010-10-30T08:50:50Z</time>
      </trkpt>
      <trkpt lat="45.05563" lon="5.07242">
        <ele>196.93699645996</ele>
        <time>2010-10-30T08:50:58Z</time>
      </trkpt>
      <trkpt lat="45.05565" lon="5.07211">
        <ele>197.34399414062</ele>
        <time>2010-10-30T08:51:02Z</time>
      </trkpt>
      <trkpt lat="45.05577" lon="5.07192">
        <ele>196.54400634766</ele>
        <time>2010-10-30T08:51:06Z</time>
      </trkpt>
      <trkpt lat="45.05599" lon="5.07195">
        <ele>196.30599975586</ele>
        <time>2010-10-30T08:51:10Z</time>
      </trkpt>
      <trkpt lat="45.0562" lon="5.07224">
        <ele>195.7619934082</ele>
        <time>2010-10-30T08:51:14Z</time>
      </trkpt>
      <trkpt lat="45.05627" lon="5.0723">
        <ele>195.58999633789</ele>
        <time>2010-10-30T08:51:15Z</time>
      </trkpt>
      <trkpt lat="45.05679" lon="5.0728">
        <ele>196.24200439453</ele>
        <time>2010-10-30T08:51:23Z</time>
      </trkpt>
      <trkpt lat="45.05701" lon="5.07287">
        <ele>195.68200683594</ele>
        <time>2010-10-30T08:51:27Z</time>
      </trkpt>
      <trkpt lat="45.05705" lon="5.07269">
        <ele>195.39199829102</ele>
        <time>2010-10-30T08:51:29Z</time>
      </trkpt>
      <trkpt lat="45.05711" lon="5.07166">
        <ele>196.03900146484</ele>
        <time>2010-10-30T08:51:40Z</time>
      </trkpt>
      <trkpt lat="45.05707" lon="5.07099">
        <ele>195.96000671387</ele>
        <time>2010-10-30T08:51:47Z</time>
      </trkpt>
      <trkpt lat="45.05701" lon="5.07001">
        <ele>195.56900024414</ele>
        <time>2010-10-30T08:51:57Z</time>
      </trkpt>
      <trkpt lat="45.05704" lon="5.06922">
        <ele>196.09700012207</ele>
        <time>2010-10-30T08:52:05Z</time>
      </trkpt>
      <trkpt lat="45.05714" lon="5.06848">
        <ele>196.59899902344</ele>
        <time>2010-10-30T08:52:13Z</time>
      </trkpt>
      <trkpt lat="45.05724" lon="5.06786">
        <ele>197.15899658203</ele>
        <time>2010-10-30T08:52:20Z</time>
      </trkpt>
      <trkpt lat="45.0574" lon="5.06683">
        <ele>197.15899658203</ele>
        <time>2010-10-30T08:52:31Z</time>
      </trkpt>
      <trkpt lat="45.05749" lon="5.06619">
        <ele>197.01400756836</ele>
        <time>2010-10-30T08:52:38Z</time>
      </trkpt>
      <trkpt lat="45.05759" lon="5.06548">
        <ele>196.83399963379</ele>
        <time>2010-10-30T08:52:46Z</time>
      </trkpt>
      <trkpt lat="45.05765" lon="5.06508">
        <ele>196.88200378418</ele>
        <time>2010-10-30T08:52:51Z</time>
      </trkpt>
      <trkpt lat="45.05766" lon="5.06484">
        <ele>196.58599853516</ele>
        <time>2010-10-30T08:52:54Z</time>
      </trkpt>
      <trkpt lat="45.05769" lon="5.06457">
        <ele>195.53399658203</ele>
        <time>2010-10-30T08:52:58Z</time>
      </trkpt>
      <trkpt lat="45.05762" lon="5.06417">
        <ele>195.42900085449</ele>
        <time>2010-10-30T08:53:03Z</time>
      </trkpt>
      <trkpt lat="45.05764" lon="5.06398">
        <ele>195.04800415039</ele>
        <time>2010-10-30T08:53:05Z</time>
      </trkpt>
      <trkpt lat="45.05783" lon="5.06337">
        <ele>194.89500427246</ele>
        <time>2010-10-30T08:53:11Z</time>
      </trkpt>
      <trkpt lat="45.05812" lon="5.06252">
        <ele>194.9640045166</ele>
        <time>2010-10-30T08:53:20Z</time>
      </trkpt>
      <trkpt lat="45.05843" lon="5.0616">
        <ele>194.41700744629</ele>
        <time>2010-10-30T08:53:30Z</time>
      </trkpt>
      <trkpt lat="45.05868" lon="5.06086">
        <ele>194.89500427246</ele>
        <time>2010-10-30T08:53:38Z</time>
      </trkpt>
      <trkpt lat="45.05903" lon="5.05983">
        <ele>194.92100524902</ele>
        <time>2010-10-30T08:53:49Z</time>
      </trkpt>
      <trkpt lat="45.05937" lon="5.05891">
        <ele>193.92999267578</ele>
        <time>2010-10-30T08:53:59Z</time>
      </trkpt>
      <trkpt lat="45.05961" lon="5.05818">
        <ele>194.91900634766</ele>
        <time>2010-10-30T08:54:07Z</time>
      </trkpt>
      <trkpt lat="45.05975" lon="5.05748">
        <ele>193.68200683594</ele>
        <time>2010-10-30T08:54:14Z</time>
      </trkpt>
      <trkpt lat="45.05994" lon="5.05657">
        <ele>194.35600280762</ele>
        <time>2010-10-30T08:54:23Z</time>
      </trkpt>
      <trkpt lat="45.06" lon="5.05627">
        <ele>193.12199401856</ele>
        <time>2010-10-30T08:54:26Z</time>
      </trkpt>
      <trkpt lat="45.06019" lon="5.05529">
        <ele>193.6190032959</ele>
        <time>2010-10-30T08:54:36Z</time>
      </trkpt>
      <trkpt lat="45.06036" lon="5.05449">
        <ele>192.89500427246</ele>
        <time>2010-10-30T08:54:44Z</time>
      </trkpt>
      <trkpt lat="45.0605" lon="5.05378">
        <ele>193.78799438477</ele>
        <time>2010-10-30T08:54:51Z</time>
      </trkpt>
      <trkpt lat="45.06065" lon="5.05306">
        <ele>193.57400512695</ele>
        <time>2010-10-30T08:54:58Z</time>
      </trkpt>
      <trkpt lat="45.06084" lon="5.05215">
        <ele>193.2619934082</ele>
        <time>2010-10-30T08:55:07Z</time>
      </trkpt>
      <trkpt lat="45.06095" lon="5.05158">
        <ele>193.50999450684</ele>
        <time>2010-10-30T08:55:13Z</time>
      </trkpt>
      <trkpt lat="45.06096" lon="5.05149">
        <ele>193.68699645996</ele>
        <time>2010-10-30T08:55:14Z</time>
      </trkpt>
      <trkpt lat="45.0611" lon="5.05117">
        <ele>194.27099609375</ele>
        <time>2010-10-30T08:55:19Z</time>
      </trkpt>
      <trkpt lat="45.06113" lon="5.05093">
        <ele>194.01499938965</ele>
        <time>2010-10-30T08:55:22Z</time>
      </trkpt>
      <trkpt lat="45.06112" lon="5.05058">
        <ele>193.15400695801</ele>
        <time>2010-10-30T08:55:26Z</time>
      </trkpt>
      <trkpt lat="45.06124" lon="5.04985">
        <ele>192.92599487305</ele>
        <time>2010-10-30T08:55:34Z</time>
      </trkpt>
      <trkpt lat="45.06128" lon="5.04917">
        <ele>192.84700012207</ele>
        <time>2010-10-30T08:55:41Z</time>
      </trkpt>
      <trkpt lat="45.06123" lon="5.0484">
        <ele>193.20899963379</ele>
        <time>2010-10-30T08:55:49Z</time>
      </trkpt>
      <trkpt lat="45.06112" lon="5.04774">
        <ele>194.09199523926</ele>
        <time>2010-10-30T08:55:56Z</time>
      </trkpt>
      <trkpt lat="45.0611" lon="5.04764">
        <ele>194.05200195312</ele>
        <time>2010-10-30T08:55:57Z</time>
      </trkpt>
      <trkpt lat="45.06088" lon="5.04681">
        <ele>193.57899475098</ele>
        <time>2010-10-30T08:56:06Z</time>
      </trkpt>
      <trkpt lat="45.06068" lon="5.04593">
        <ele>193.31700134277</ele>
        <time>2010-10-30T08:56:15Z</time>
      </trkpt>
      <trkpt lat="45.06055" lon="5.04515">
        <ele>193.7559967041</ele>
        <time>2010-10-30T08:56:23Z</time>
      </trkpt>
      <trkpt lat="45.06048" lon="5.04425">
        <ele>194.58299255371</ele>
        <time>2010-10-30T08:56:32Z</time>
      </trkpt>
      <trkpt lat="45.06044" lon="5.04337">
        <ele>194.11000061035</ele>
        <time>2010-10-30T08:56:41Z</time>
      </trkpt>
      <trkpt lat="45.06041" lon="5.04265">
        <ele>195.03999328613</ele>
        <time>2010-10-30T08:56:49Z</time>
      </trkpt>
      <trkpt lat="45.06038" lon="5.04211">
        <ele>196.36399841309</ele>
        <time>2010-10-30T08:56:56Z</time>
      </trkpt>
      <trkpt lat="45.06038" lon="5.04204">
        <ele>196.61799621582</ele>
        <time>2010-10-30T08:56:57Z</time>
      </trkpt>
      <trkpt lat="45.06046" lon="5.04177">
        <ele>196.62300109863</ele>
        <time>2010-10-30T08:57:01Z</time>
      </trkpt>
      <trkpt lat="45.06046" lon="5.04145">
        <ele>196.89999389648</ele>
        <time>2010-10-30T08:57:05Z</time>
      </trkpt>
      <trkpt lat="45.06043" lon="5.04118">
        <ele>195.88800048828</ele>
        <time>2010-10-30T08:57:08Z</time>
      </trkpt>
      <trkpt lat="45.06052" lon="5.04033">
        <ele>195.69500732422</ele>
        <time>2010-10-30T08:57:17Z</time>
      </trkpt>
      <trkpt lat="45.06062" lon="5.03948">
        <ele>194.91600036621</ele>
        <time>2010-10-30T08:57:26Z</time>
      </trkpt>
      <trkpt lat="45.06069" lon="5.03858">
        <ele>195.03999328613</ele>
        <time>2010-10-30T08:57:36Z</time>
      </trkpt>
      <trkpt lat="45.06071" lon="5.03777">
        <ele>194.64100646973</ele>
        <time>2010-10-30T08:57:45Z</time>
      </trkpt>
      <trkpt lat="45.06069" lon="5.03706">
        <ele>194.30599975586</ele>
        <time>2010-10-30T08:57:53Z</time>
      </trkpt>
      <trkpt lat="45.06063" lon="5.03619">
        <ele>194.28399658203</ele>
        <time>2010-10-30T08:58:03Z</time>
      </trkpt>
      <trkpt lat="45.0605" lon="5.03519">
        <ele>194.27799987793</ele>
        <time>2010-10-30T08:58:14Z</time>
      </trkpt>
      <trkpt lat="45.06038" lon="5.03418">
        <ele>193.54200744629</ele>
        <time>2010-10-30T08:58:25Z</time>
      </trkpt>
      <trkpt lat="45.06028" lon="5.03328">
        <ele>193.2200012207</ele>
        <time>2010-10-30T08:58:35Z</time>
      </trkpt>
      <trkpt lat="45.06022" lon="5.03233">
        <ele>192.00700378418</ele>
        <time>2010-10-30T08:58:45Z</time>
      </trkpt>
      <trkpt lat="45.06021" lon="5.03153">
        <ele>192.39999389648</ele>
        <time>2010-10-30T08:58:54Z</time>
      </trkpt>
      <trkpt lat="45.06025" lon="5.03072">
        <ele>192.03300476074</ele>
        <time>2010-10-30T08:59:03Z</time>
      </trkpt>
      <trkpt lat="45.0603" lon="5.02977">
        <ele>191.58099365234</ele>
        <time>2010-10-30T08:59:14Z</time>
      </trkpt>
      <trkpt lat="45.06034" lon="5.029">
        <ele>191.38299560547</ele>
        <time>2010-10-30T08:59:23Z</time>
      </trkpt>
      <trkpt lat="45.06035" lon="5.02842">
        <ele>191.20599365234</ele>
        <time>2010-10-30T08:59:30Z</time>
      </trkpt>
      <trkpt lat="45.06033" lon="5.02792">
        <ele>191.16900634766</ele>
        <time>2010-10-30T08:59:36Z</time>
      </trkpt>
      <trkpt lat="45.06025" lon="5.02715">
        <ele>190.07299804688</ele>
        <time>2010-10-30T08:59:45Z</time>
      </trkpt>
      <trkpt lat="45.06009" lon="5.0264">
        <ele>190.57699584961</ele>
        <time>2010-10-30T08:59:54Z</time>
      </trkpt>
      <trkpt lat="45.05983" lon="5.02555">
        <ele>190.89999389648</ele>
        <time>2010-10-30T09:00:04Z</time>
      </trkpt>
      <trkpt lat="45.05951" lon="5.02482">
        <ele>190.75999450684</ele>
        <time>2010-10-30T09:00:13Z</time>
      </trkpt>
      <trkpt lat="45.05915" lon="5.02421">
        <ele>189.81900024414</ele>
        <time>2010-10-30T09:00:21Z</time>
      </trkpt>
      <trkpt lat="45.05874" lon="5.02366">
        <ele>189.98300170898</ele>
        <time>2010-10-30T09:00:29Z</time>
      </trkpt>
      <trkpt lat="45.05828" lon="5.02317">
        <ele>190.27299499512</ele>
        <time>2010-10-30T09:00:37Z</time>
      </trkpt>
      <trkpt lat="45.05777" lon="5.02277">
        <ele>189.08700561523</ele>
        <time>2010-10-30T09:00:45Z</time>
      </trkpt>
      <trkpt lat="45.05704" lon="5.02229">
        <ele>188.58799743652</ele>
        <time>2010-10-30T09:00:56Z</time>
      </trkpt>
      <trkpt lat="45.05645" lon="5.02191">
        <ele>188.2440032959</ele>
        <time>2010-10-30T09:01:05Z</time>
      </trkpt>
      <trkpt lat="45.05574" lon="5.02141">
        <ele>187.31100463867</ele>
        <time>2010-10-30T09:01:16Z</time>
      </trkpt>
      <trkpt lat="45.05546" lon="5.02113">
        <ele>188.49299621582</ele>
        <time>2010-10-30T09:01:21Z</time>
      </trkpt>
      <trkpt lat="45.05542" lon="5.02107">
        <ele>188.98899841309</ele>
        <time>2010-10-30T09:01:22Z</time>
      </trkpt>
      <trkpt lat="45.05527" lon="5.0208">
        <ele>191.1190032959</ele>
        <time>2010-10-30T09:01:27Z</time>
      </trkpt>
      <trkpt lat="45.05511" lon="5.02048">
        <ele>192.79299926758</ele>
        <time>2010-10-30T09:01:34Z</time>
      </trkpt>
      <trkpt lat="45.05507" lon="5.02016">
        <ele>192.54800415039</ele>
        <time>2010-10-30T09:01:39Z</time>
      </trkpt>
      <trkpt lat="45.05507" lon="5.02001">
        <ele>191.89799499512</ele>
        <time>2010-10-30T09:01:41Z</time>
      </trkpt>
      <trkpt lat="45.05514" lon="5.01929">
        <ele>189.70300292969</ele>
        <time>2010-10-30T09:01:49Z</time>
      </trkpt>
      <trkpt lat="45.05517" lon="5.01887">
        <ele>188.1309967041</ele>
        <time>2010-10-30T09:01:53Z</time>
      </trkpt>
      <trkpt lat="45.05527" lon="5.01792">
        <ele>186.45300292969</ele>
        <time>2010-10-30T09:02:02Z</time>
      </trkpt>
      <trkpt lat="45.05542" lon="5.01731">
        <ele>186.44999694824</ele>
        <time>2010-10-30T09:02:09Z</time>
      </trkpt>
      <trkpt lat="45.05566" lon="5.01652">
        <ele>186.46099853516</ele>
        <time>2010-10-30T09:02:19Z</time>
      </trkpt>
      <trkpt lat="45.05583" lon="5.01579">
        <ele>186.37600708008</ele>
        <time>2010-10-30T09:02:28Z</time>
      </trkpt>
      <trkpt lat="45.05595" lon="5.0151">
        <ele>186.76400756836</ele>
        <time>2010-10-30T09:02:36Z</time>
      </trkpt>
      <trkpt lat="45.05606" lon="5.01436">
        <ele>186.49200439453</ele>
        <time>2010-10-30T09:02:44Z</time>
      </trkpt>
      <trkpt lat="45.05621" lon="5.01343">
        <ele>186.3630065918</ele>
        <time>2010-10-30T09:02:54Z</time>
      </trkpt>
      <trkpt lat="45.0564" lon="5.01253">
        <ele>186.07699584961</ele>
        <time>2010-10-30T09:03:04Z</time>
      </trkpt>
      <trkpt lat="45.05651" lon="5.01183">
        <ele>185.93200683594</ele>
        <time>2010-10-30T09:03:12Z</time>
      </trkpt>
      <trkpt lat="45.05658" lon="5.01094">
        <ele>185.84199523926</ele>
        <time>2010-10-30T09:03:22Z</time>
      </trkpt>
      <trkpt lat="45.05662" lon="5.01006">
        <ele>186.81500244141</ele>
        <time>2010-10-30T09:03:32Z</time>
      </trkpt>
      <trkpt lat="45.05666" lon="5.00918">
        <ele>186.89100646973</ele>
        <time>2010-10-30T09:03:42Z</time>
      </trkpt>
      <trkpt lat="45.05673" lon="5.0086">
        <ele>185.75199890137</ele>
        <time>2010-10-30T09:03:49Z</time>
      </trkpt>
      <trkpt lat="45.05688" lon="5.00782">
        <ele>185.78399658203</ele>
        <time>2010-10-30T09:03:58Z</time>
      </trkpt>
      <trkpt lat="45.05715" lon="5.00667">
        <ele>184.56599426269</ele>
        <time>2010-10-30T09:04:11Z</time>
      </trkpt>
      <trkpt lat="45.05732" lon="5.00586">
        <ele>184.19599914551</ele>
        <time>2010-10-30T09:04:20Z</time>
      </trkpt>
      <trkpt lat="45.05745" lon="5.00496">
        <ele>183.52000427246</ele>
        <time>2010-10-30T09:04:30Z</time>
      </trkpt>
      <trkpt lat="45.05758" lon="5.00381">
        <ele>182.83799743652</ele>
        <time>2010-10-30T09:04:43Z</time>
      </trkpt>
      <trkpt lat="45.05769" lon="5.00311">
        <ele>182.40199279785</ele>
        <time>2010-10-30T09:04:51Z</time>
      </trkpt>
      <trkpt lat="45.0579" lon="5.00228">
        <ele>182.09300231934</ele>
        <time>2010-10-30T09:05:01Z</time>
      </trkpt>
      <trkpt lat="45.05814" lon="5.00141">
        <ele>181.97399902344</ele>
        <time>2010-10-30T09:05:12Z</time>
      </trkpt>
      <trkpt lat="45.0584" lon="5.00048">
        <ele>182.6130065918</ele>
        <time>2010-10-30T09:05:24Z</time>
      </trkpt>
      <trkpt lat="45.05856" lon="4.99995">
        <ele>182.48899841309</ele>
        <time>2010-10-30T09:05:32Z</time>
      </trkpt>
      <trkpt lat="45.05876" lon="4.9994">
        <ele>182.55299377441</ele>
        <time>2010-10-30T09:05:40Z</time>
      </trkpt>
      <trkpt lat="45.05908" lon="4.99874">
        <ele>182.52600097656</ele>
        <time>2010-10-30T09:05:50Z</time>
      </trkpt>
      <trkpt lat="45.05945" lon="4.99804">
        <ele>182.89300537109</ele>
        <time>2010-10-30T09:06:01Z</time>
      </trkpt>
      <trkpt lat="45.05979" lon="4.99731">
        <ele>184.31500244141</ele>
        <time>2010-10-30T09:06:12Z</time>
      </trkpt>
      <trkpt lat="45.05982" lon="4.99724">
        <ele>184.57699584961</ele>
        <time>2010-10-30T09:06:13Z</time>
      </trkpt>
      <trkpt lat="45.06005" lon="4.99657">
        <ele>185.99299621582</ele>
        <time>2010-10-30T09:06:23Z</time>
      </trkpt>
      <trkpt lat="45.06021" lon="4.99592">
        <ele>187.41200256348</ele>
        <time>2010-10-30T09:06:33Z</time>
      </trkpt>
      <trkpt lat="45.06031" lon="4.99541">
        <ele>187.25300598144</ele>
        <time>2010-10-30T09:06:40Z</time>
      </trkpt>
      <trkpt lat="45.06043" lon="4.99478">
        <ele>186.04600524902</ele>
        <time>2010-10-30T09:06:48Z</time>
      </trkpt>
      <trkpt lat="45.06059" lon="4.9939">
        <ele>184.44400024414</ele>
        <time>2010-10-30T09:06:58Z</time>
      </trkpt>
      <trkpt lat="45.06077" lon="4.99289">
        <ele>184.12199401856</ele>
        <time>2010-10-30T09:07:09Z</time>
      </trkpt>
      <trkpt lat="45.06091" lon="4.99212">
        <ele>184.08200073242</ele>
        <time>2010-10-30T09:07:18Z</time>
      </trkpt>
      <trkpt lat="45.06101" lon="4.99158">
        <ele>185.18200683594</ele>
        <time>2010-10-30T09:07:25Z</time>
      </trkpt>
      <trkpt lat="45.0611" lon="4.99094">
        <ele>186.65600585938</ele>
        <time>2010-10-30T09:07:34Z</time>
      </trkpt>
      <trkpt lat="45.06113" lon="4.99028">
        <ele>187.40899658203</ele>
        <time>2010-10-30T09:07:43Z</time>
      </trkpt>
      <trkpt lat="45.0611" lon="4.98958">
        <ele>188.04299926758</ele>
        <time>2010-10-30T09:07:52Z</time>
      </trkpt>
      <trkpt lat="45.06105" lon="4.98903">
        <ele>188.68299865723</ele>
        <time>2010-10-30T09:07:59Z</time>
      </trkpt>
      <trkpt lat="45.06103" lon="4.98855">
        <ele>188.9049987793</ele>
        <time>2010-10-30T09:08:05Z</time>
      </trkpt>
      <trkpt lat="45.06108" lon="4.98826">
        <ele>189.24299621582</ele>
        <time>2010-10-30T09:08:09Z</time>
      </trkpt>
      <trkpt lat="45.06125" lon="4.98784">
        <ele>190.43699645996</ele>
        <time>2010-10-30T09:08:16Z</time>
      </trkpt>
      <trkpt lat="45.06145" lon="4.98755">
        <ele>192.08599853516</ele>
        <time>2010-10-30T09:08:22Z</time>
      </trkpt>
      <trkpt lat="45.06173" lon="4.98732">
        <ele>194.28700256348</ele>
        <time>2010-10-30T09:08:29Z</time>
      </trkpt>
      <trkpt lat="45.06176" lon="4.98729">
        <ele>194.29499816894</ele>
        <time>2010-10-30T09:08:30Z</time>
      </trkpt>
      <trkpt lat="45.06204" lon="4.98707">
        <ele>194.33200073242</ele>
        <time>2010-10-30T09:08:36Z</time>
      </trkpt>
      <trkpt lat="45.06232" lon="4.98686">
        <ele>193.2140045166</ele>
        <time>2010-10-30T09:08:41Z</time>
      </trkpt>
      <trkpt lat="45.06265" lon="4.98662">
        <ele>191.75300598144</ele>
        <time>2010-10-30T09:08:46Z</time>
      </trkpt>
      <trkpt lat="45.06313" lon="4.98651">
        <ele>189.77699279785</ele>
        <time>2010-10-30T09:08:52Z</time>
      </trkpt>
      <trkpt lat="45.06352" lon="4.98626">
        <ele>188.03799438477</ele>
        <time>2010-10-30T09:08:57Z</time>
      </trkpt>
      <trkpt lat="45.06364" lon="4.98607">
        <ele>187.39900207519</ele>
        <time>2010-10-30T09:08:59Z</time>
      </trkpt>
      <trkpt lat="45.06408" lon="4.98529">
        <ele>187.18699645996</ele>
        <time>2010-10-30T09:09:07Z</time>
      </trkpt>
      <trkpt lat="45.06433" lon="4.98505">
        <ele>188.72500610352</ele>
        <time>2010-10-30T09:09:11Z</time>
      </trkpt>
      <trkpt lat="45.06449" lon="4.98502">
        <ele>188.07200622559</ele>
        <time>2010-10-30T09:09:13Z</time>
      </trkpt>
      <trkpt lat="45.06514" lon="4.98504">
        <ele>186.88900756836</ele>
        <time>2010-10-30T09:09:21Z</time>
      </trkpt>
      <trkpt lat="45.06567" lon="4.98506">
        <ele>188.08299255371</ele>
        <time>2010-10-30T09:09:28Z</time>
      </trkpt>
      <trkpt lat="45.06646" lon="4.98505">
        <ele>188.64300537109</ele>
        <time>2010-10-30T09:09:38Z</time>
      </trkpt>
      <trkpt lat="45.06724" lon="4.98507">
        <ele>189.62300109863</ele>
        <time>2010-10-30T09:09:48Z</time>
      </trkpt>
      <trkpt lat="45.06796" lon="4.98506">
        <ele>190.13299560547</ele>
        <time>2010-10-30T09:09:58Z</time>
      </trkpt>
      <trkpt lat="45.06844" lon="4.98506">
        <ele>190.55900573731</ele>
        <time>2010-10-30T09:10:05Z</time>
      </trkpt>
      <trkpt lat="45.0689" lon="4.98504">
        <ele>190.66700744629</ele>
        <time>2010-10-30T09:10:12Z</time>
      </trkpt>
      <trkpt lat="45.06968" lon="4.98503">
        <ele>192.47200012207</ele>
        <time>2010-10-30T09:10:24Z</time>
      </trkpt>
      <trkpt lat="45.07019" lon="4.98508">
        <ele>192.96899414062</ele>
        <time>2010-10-30T09:10:32Z</time>
      </trkpt>
      <trkpt lat="45.07043" lon="4.98516">
        <ele>192.80999755859</ele>
        <time>2010-10-30T09:10:36Z</time>
      </trkpt>
      <trkpt lat="45.07076" lon="4.9854">
        <ele>193.67399597168</ele>
        <time>2010-10-30T09:10:42Z</time>
      </trkpt>
      <trkpt lat="45.07111" lon="4.98577">
        <ele>193.96499633789</ele>
        <time>2010-10-30T09:10:49Z</time>
      </trkpt>
      <trkpt lat="45.07146" lon="4.98626">
        <ele>195.03799438477</ele>
        <time>2010-10-30T09:10:57Z</time>
      </trkpt>
      <trkpt lat="45.07155" lon="4.98639">
        <ele>195.10899353027</ele>
        <time>2010-10-30T09:10:59Z</time>
      </trkpt>
      <trkpt lat="45.07183" lon="4.98659">
        <ele>195.30700683594</ele>
        <time>2010-10-30T09:11:04Z</time>
      </trkpt>
      <trkpt lat="45.0719" lon="4.98661">
        <ele>195.39399719238</ele>
        <time>2010-10-30T09:11:05Z</time>
      </trkpt>
      <trkpt lat="45.07251" lon="4.98669">
        <ele>195.89599609375</ele>
        <time>2010-10-30T09:11:14Z</time>
      </trkpt>
      <trkpt lat="45.07301" lon="4.9867">
        <ele>195.47099304199</ele>
        <time>2010-10-30T09:11:21Z</time>
      </trkpt>
      <trkpt lat="45.07349" lon="4.9867">
        <ele>196.06300354004</ele>
        <time>2010-10-30T09:11:28Z</time>
      </trkpt>
      <trkpt lat="45.07395" lon="4.98669">
        <ele>196.93499755859</ele>
        <time>2010-10-30T09:11:35Z</time>
      </trkpt>
      <trkpt lat="45.07415" lon="4.98666">
        <ele>196.99000549316</ele>
        <time>2010-10-30T09:11:38Z</time>
      </trkpt>
      <trkpt lat="45.07465" lon="4.98652">
        <ele>197.15100097656</ele>
        <time>2010-10-30T09:11:45Z</time>
      </trkpt>
      <trkpt lat="45.07513" lon="4.98638">
        <ele>197.65299987793</ele>
        <time>2010-10-30T09:11:52Z</time>
      </trkpt>
      <trkpt lat="45.0756" lon="4.98633">
        <ele>198.22200012207</ele>
        <time>2010-10-30T09:11:59Z</time>
      </trkpt>
      <trkpt lat="45.07607" lon="4.98634">
        <ele>198.99800109863</ele>
        <time>2010-10-30T09:12:06Z</time>
      </trkpt>
      <trkpt lat="45.07645" lon="4.98628">
        <ele>199.56599426269</ele>
        <time>2010-10-30T09:12:12Z</time>
      </trkpt>
      <trkpt lat="45.07684" lon="4.98611">
        <ele>199.83299255371</ele>
        <time>2010-10-30T09:12:18Z</time>
      </trkpt>
      <trkpt lat="45.07742" lon="4.98585">
        <ele>200.4700012207</ele>
        <time>2010-10-30T09:12:27Z</time>
      </trkpt>
      <trkpt lat="45.07784" lon="4.9858">
        <ele>200.87199401856</ele>
        <time>2010-10-30T09:12:33Z</time>
      </trkpt>
      <trkpt lat="45.07846" lon="4.98585">
        <ele>201.55900573731</ele>
        <time>2010-10-30T09:12:42Z</time>
      </trkpt>
      <trkpt lat="45.07899" lon="4.98587">
        <ele>202.27200317383</ele>
        <time>2010-10-30T09:12:50Z</time>
      </trkpt>
      <trkpt lat="45.07937" lon="4.98594">
        <ele>202.58700561523</ele>
        <time>2010-10-30T09:12:56Z</time>
      </trkpt>
      <trkpt lat="45.07979" lon="4.98619">
        <ele>203.58799743652</ele>
        <time>2010-10-30T09:13:03Z</time>
      </trkpt>
      <trkpt lat="45.08025" lon="4.9864">
        <ele>204.13000488281</ele>
        <time>2010-10-30T09:13:10Z</time>
      </trkpt>
      <trkpt lat="45.08044" lon="4.98648">
        <ele>204.51600646973</ele>
        <time>2010-10-30T09:13:13Z</time>
      </trkpt>
      <trkpt lat="45.08118" lon="4.9866">
        <ele>205.7859954834</ele>
        <time>2010-10-30T09:13:24Z</time>
      </trkpt>
      <trkpt lat="45.08182" lon="4.98671">
        <ele>206.19099426269</ele>
        <time>2010-10-30T09:13:33Z</time>
      </trkpt>
      <trkpt lat="45.08215" lon="4.98676">
        <ele>206.7619934082</ele>
        <time>2010-10-30T09:13:38Z</time>
      </trkpt>
      <trkpt lat="45.08252" lon="4.98685">
        <ele>207.77600097656</ele>
        <time>2010-10-30T09:13:44Z</time>
      </trkpt>
      <trkpt lat="45.0827" lon="4.98692">
        <ele>207.81799316406</ele>
        <time>2010-10-30T09:13:47Z</time>
      </trkpt>
      <trkpt lat="45.08312" lon="4.98718">
        <ele>208.15699768066</ele>
        <time>2010-10-30T09:13:54Z</time>
      </trkpt>
      <trkpt lat="45.08348" lon="4.9874">
        <ele>208.67199707031</ele>
        <time>2010-10-30T09:14:00Z</time>
      </trkpt>
      <trkpt lat="45.08387" lon="4.98771">
        <ele>209.76100158691</ele>
        <time>2010-10-30T09:14:07Z</time>
      </trkpt>
      <trkpt lat="45.08416" lon="4.98801">
        <ele>211.02600097656</ele>
        <time>2010-10-30T09:14:13Z</time>
      </trkpt>
      <trkpt lat="45.0844" lon="4.98823">
        <ele>211.58399963379</ele>
        <time>2010-10-30T09:14:18Z</time>
      </trkpt>
      <trkpt lat="45.08464" lon="4.98831">
        <ele>210.69099426269</ele>
        <time>2010-10-30T09:14:22Z</time>
      </trkpt>
      <trkpt lat="45.08498" lon="4.98832">
        <ele>212.58000183106</ele>
        <time>2010-10-30T09:14:28Z</time>
      </trkpt>
      <trkpt lat="45.08538" lon="4.98833">
        <ele>213.22700500488</ele>
        <time>2010-10-30T09:14:35Z</time>
      </trkpt>
      <trkpt lat="45.08566" lon="4.98843">
        <ele>214.57000732422</ele>
        <time>2010-10-30T09:14:40Z</time>
      </trkpt>
      <trkpt lat="45.0857" lon="4.98847">
        <ele>214.73100280762</ele>
        <time>2010-10-30T09:14:41Z</time>
      </trkpt>
      <trkpt lat="45.08604" lon="4.9888">
        <ele>216.64599609375</ele>
        <time>2010-10-30T09:14:49Z</time>
      </trkpt>
      <trkpt lat="45.08643" lon="4.9892">
        <ele>218.82600402832</ele>
        <time>2010-10-30T09:14:58Z</time>
      </trkpt>
      <trkpt lat="45.08668" lon="4.98947">
        <ele>219.75100708008</ele>
        <time>2010-10-30T09:15:04Z</time>
      </trkpt>
      <trkpt lat="45.087" lon="4.98981">
        <ele>219.70599365234</ele>
        <time>2010-10-30T09:15:11Z</time>
      </trkpt>
      <trkpt lat="45.08725" lon="4.99007">
        <ele>219.86700439453</ele>
        <time>2010-10-30T09:15:16Z</time>
      </trkpt>
      <trkpt lat="45.08762" lon="4.99043">
        <ele>219.94700622559</ele>
        <time>2010-10-30T09:15:23Z</time>
      </trkpt>
      <trkpt lat="45.08786" lon="4.99057">
        <ele>219.97300720215</ele>
        <time>2010-10-30T09:15:27Z</time>
      </trkpt>
      <trkpt lat="45.08845" lon="4.9908">
        <ele>220.18400573731</ele>
        <time>2010-10-30T09:15:36Z</time>
      </trkpt>
      <trkpt lat="45.08902" lon="4.9911">
        <ele>220.57299804688</ele>
        <time>2010-10-30T09:15:45Z</time>
      </trkpt>
      <trkpt lat="45.08944" lon="4.99132">
        <ele>221.13299560547</ele>
        <time>2010-10-30T09:15:52Z</time>
      </trkpt>
      <trkpt lat="45.08989" lon="4.99156">
        <ele>222.78199768066</ele>
        <time>2010-10-30T09:16:00Z</time>
      </trkpt>
      <trkpt lat="45.09035" lon="4.9918">
        <ele>224.30700683594</ele>
        <time>2010-10-30T09:16:09Z</time>
      </trkpt>
      <trkpt lat="45.09088" lon="4.99209">
        <ele>225.53999328613</ele>
        <time>2010-10-30T09:16:19Z</time>
      </trkpt>
      <trkpt lat="45.09138" lon="4.99246">
        <ele>227.08399963379</ele>
        <time>2010-10-30T09:16:28Z</time>
      </trkpt>
      <trkpt lat="45.09178" lon="4.99283">
        <ele>227.44299316406</ele>
        <time>2010-10-30T09:16:35Z</time>
      </trkpt>
      <trkpt lat="45.0922" lon="4.99324">
        <ele>227.82600402832</ele>
        <time>2010-10-30T09:16:42Z</time>
      </trkpt>
      <trkpt lat="45.09281" lon="4.99394">
        <ele>229.17399597168</ele>
        <time>2010-10-30T09:16:53Z</time>
      </trkpt>
      <trkpt lat="45.09316" lon="4.99436">
        <ele>230.15899658203</ele>
        <time>2010-10-30T09:17:00Z</time>
      </trkpt>
      <trkpt lat="45.09354" lon="4.99482">
        <ele>230.76400756836</ele>
        <time>2010-10-30T09:17:08Z</time>
      </trkpt>
      <trkpt lat="45.0939" lon="4.99525">
        <ele>230.49200439453</ele>
        <time>2010-10-30T09:17:15Z</time>
      </trkpt>
      <trkpt lat="45.09435" lon="4.99581">
        <ele>229.12600708008</ele>
        <time>2010-10-30T09:17:23Z</time>
      </trkpt>
      <trkpt lat="45.09475" lon="4.99639">
        <ele>228.53199768066</ele>
        <time>2010-10-30T09:17:30Z</time>
      </trkpt>
      <trkpt lat="45.09521" lon="4.99712">
        <ele>228.9700012207</ele>
        <time>2010-10-30T09:17:39Z</time>
      </trkpt>
      <trkpt lat="45.09556" lon="4.9977">
        <ele>230.14100646973</ele>
        <time>2010-10-30T09:17:47Z</time>
      </trkpt>
      <trkpt lat="45.09595" lon="4.99826">
        <ele>231.40400695801</ele>
        <time>2010-10-30T09:17:56Z</time>
      </trkpt>
      <trkpt lat="45.09616" lon="4.99856">
        <ele>231.87899780273</ele>
        <time>2010-10-30T09:18:01Z</time>
      </trkpt>
      <trkpt lat="45.09655" lon="4.99897">
        <ele>232.20399475098</ele>
        <time>2010-10-30T09:18:09Z</time>
      </trkpt>
      <trkpt lat="45.09696" lon="4.99929">
        <ele>232.65600585938</ele>
        <time>2010-10-30T09:18:16Z</time>
      </trkpt>
      <trkpt lat="45.0975" lon="4.99965">
        <ele>233.16600036621</ele>
        <time>2010-10-30T09:18:25Z</time>
      </trkpt>
      <trkpt lat="45.09794" lon="4.99998">
        <ele>233.86099243164</ele>
        <time>2010-10-30T09:18:32Z</time>
      </trkpt>
      <trkpt lat="45.0982" lon="5.00033">
        <ele>234.15400695801</ele>
        <time>2010-10-30T09:18:37Z</time>
      </trkpt>
      <trkpt lat="45.09845" lon="5.00084">
        <ele>234.72999572754</ele>
        <time>2010-10-30T09:18:43Z</time>
      </trkpt>
      <trkpt lat="45.09867" lon="5.00138">
        <ele>234.77799987793</ele>
        <time>2010-10-30T09:18:49Z</time>
      </trkpt>
      <trkpt lat="45.09896" lon="5.00214">
        <ele>236.07000732422</ele>
        <time>2010-10-30T09:18:58Z</time>
      </trkpt>
      <trkpt lat="45.09911" lon="5.00258">
        <ele>236.75199890137</ele>
        <time>2010-10-30T09:19:03Z</time>
      </trkpt>
      <trkpt lat="45.09924" lon="5.00281">
        <ele>236.77600097656</ele>
        <time>2010-10-30T09:19:06Z</time>
      </trkpt>
      <trkpt lat="45.09945" lon="5.00306">
        <ele>236.97900390625</ele>
        <time>2010-10-30T09:19:10Z</time>
      </trkpt>
      <trkpt lat="45.09986" lon="5.00339">
        <ele>237.82699584961</ele>
        <time>2010-10-30T09:19:17Z</time>
      </trkpt>
      <trkpt lat="45.1003" lon="5.00365">
        <ele>238.40299987793</ele>
        <time>2010-10-30T09:19:24Z</time>
      </trkpt>
      <trkpt lat="45.10076" lon="5.00393">
        <ele>239.7559967041</ele>
        <time>2010-10-30T09:19:31Z</time>
      </trkpt>
      <trkpt lat="45.10105" lon="5.00424">
        <ele>240.15199279785</ele>
        <time>2010-10-30T09:19:36Z</time>
      </trkpt>
      <trkpt lat="45.10144" lon="5.00486">
        <ele>241.01699829102</ele>
        <time>2010-10-30T09:19:44Z</time>
      </trkpt>
      <trkpt lat="45.10173" lon="5.00517">
        <ele>241.58200073242</ele>
        <time>2010-10-30T09:19:49Z</time>
      </trkpt>
      <trkpt lat="45.10184" lon="5.00526">
        <ele>241.74099731445</ele>
        <time>2010-10-30T09:19:51Z</time>
      </trkpt>
      <trkpt lat="45.10215" lon="5.00531">
        <ele>242.82699584961</ele>
        <time>2010-10-30T09:19:56Z</time>
      </trkpt>
      <trkpt lat="45.10221" lon="5.00528">
        <ele>242.78700256348</ele>
        <time>2010-10-30T09:19:57Z</time>
      </trkpt>
      <trkpt lat="45.10275" lon="5.00511">
        <ele>244.14999389648</ele>
        <time>2010-10-30T09:20:06Z</time>
      </trkpt>
      <trkpt lat="45.10315" lon="5.00498">
        <ele>245.70899963379</ele>
        <time>2010-10-30T09:20:14Z</time>
      </trkpt>
      <trkpt lat="45.10346" lon="5.0049">
        <ele>247.66999816894</ele>
        <time>2010-10-30T09:20:21Z</time>
      </trkpt>
      <trkpt lat="45.10372" lon="5.00495">
        <ele>249.4640045166</ele>
        <time>2010-10-30T09:20:27Z</time>
      </trkpt>
      <trkpt lat="45.10383" lon="5.005">
        <ele>250.32000732422</ele>
        <time>2010-10-30T09:20:30Z</time>
      </trkpt>
      <trkpt lat="45.1042" lon="5.00516">
        <ele>252.51899719238</ele>
        <time>2010-10-30T09:20:39Z</time>
      </trkpt>
      <trkpt lat="45.10448" lon="5.0053">
        <ele>254.64599609375</ele>
        <time>2010-10-30T09:20:46Z</time>
      </trkpt>
      <trkpt lat="45.10453" lon="5.00532">
        <ele>254.64799499512</ele>
        <time>2010-10-30T09:20:47Z</time>
      </trkpt>
      <trkpt lat="45.10479" lon="5.00549">
        <ele>255.18699645996</ele>
        <time>2010-10-30T09:20:53Z</time>
      </trkpt>
      <trkpt lat="45.10507" lon="5.00572">
        <ele>254.28100585938</ele>
        <time>2010-10-30T09:20:59Z</time>
      </trkpt>
      <trkpt lat="45.1055" lon="5.0061">
        <ele>254.40299987793</ele>
        <time>2010-10-30T09:21:07Z</time>
      </trkpt>
      <trkpt lat="45.10576" lon="5.00636">
        <ele>255.69999694824</ele>
        <time>2010-10-30T09:21:13Z</time>
      </trkpt>
      <trkpt lat="45.10591" lon="5.00651">
        <ele>256.86499023438</ele>
        <time>2010-10-30T09:21:18Z</time>
      </trkpt>
      <trkpt lat="45.10601" lon="5.00652">
        <ele>257.03698730469</ele>
        <time>2010-10-30T09:21:21Z</time>
      </trkpt>
      <trkpt lat="45.10605" lon="5.00649">
        <ele>257.08200073242</ele>
        <time>2010-10-30T09:21:22Z</time>
      </trkpt>
      <trkpt lat="45.10617" lon="5.00639">
        <ele>257.74200439453</ele>
        <time>2010-10-30T09:21:25Z</time>
      </trkpt>
      <trkpt lat="45.10664" lon="5.00611">
        <ele>260.3869934082</ele>
        <time>2010-10-30T09:21:35Z</time>
      </trkpt>
      <trkpt lat="45.1069" lon="5.00598">
        <ele>261.88000488281</ele>
        <time>2010-10-30T09:21:41Z</time>
      </trkpt>
      <trkpt lat="45.10729" lon="5.00588">
        <ele>264.11801147461</ele>
        <time>2010-10-30T09:21:50Z</time>
      </trkpt>
      <trkpt lat="45.10762" lon="5.00583">
        <ele>266.40399169922</ele>
        <time>2010-10-30T09:21:58Z</time>
      </trkpt>
      <trkpt lat="45.10792" lon="5.00581">
        <ele>268.53100585938</ele>
        <time>2010-10-30T09:22:06Z</time>
      </trkpt>
      <trkpt lat="45.10817" lon="5.00578">
        <ele>270.14498901367</ele>
        <time>2010-10-30T09:22:13Z</time>
      </trkpt>
      <trkpt lat="45.10844" lon="5.00573">
        <ele>272.25698852539</ele>
        <time>2010-10-30T09:22:21Z</time>
      </trkpt>
      <trkpt lat="45.10875" lon="5.00566">
        <ele>274.03500366211</ele>
        <time>2010-10-30T09:22:30Z</time>
      </trkpt>
      <trkpt lat="45.10909" lon="5.00554">
        <ele>275.1789855957</ele>
        <time>2010-10-30T09:22:38Z</time>
      </trkpt>
      <trkpt lat="45.10929" lon="5.00544">
        <ele>275.29800415039</ele>
        <time>2010-10-30T09:22:43Z</time>
      </trkpt>
      <trkpt lat="45.10966" lon="5.00521">
        <ele>274.30200195312</ele>
        <time>2010-10-30T09:22:51Z</time>
      </trkpt>
      <trkpt lat="45.11005" lon="5.00489">
        <ele>272.62399291992</ele>
        <time>2010-10-30T09:22:58Z</time>
      </trkpt>
      <trkpt lat="45.11033" lon="5.00469">
        <ele>270.33599853516</ele>
        <time>2010-10-30T09:23:02Z</time>
      </trkpt>
      <trkpt lat="45.11083" lon="5.00437">
        <ele>266.8869934082</ele>
        <time>2010-10-30T09:23:08Z</time>
      </trkpt>
      <trkpt lat="45.11141" lon="5.00406">
        <ele>263.4289855957</ele>
        <time>2010-10-30T09:23:14Z</time>
      </trkpt>
      <trkpt lat="45.11161" lon="5.00395">
        <ele>262.77301025391</ele>
        <time>2010-10-30T09:23:16Z</time>
      </trkpt>
      <trkpt lat="45.11249" lon="5.0035">
        <ele>257.78698730469</ele>
        <time>2010-10-30T09:23:24Z</time>
      </trkpt>
      <trkpt lat="45.1127" lon="5.00336">
        <ele>257.08401489258</ele>
        <time>2010-10-30T09:23:26Z</time>
      </trkpt>
      <trkpt lat="45.11352" lon="5.00276">
        <ele>254.89700317383</ele>
        <time>2010-10-30T09:23:34Z</time>
      </trkpt>
      <trkpt lat="45.11414" lon="5.0022">
        <ele>255.43299865723</ele>
        <time>2010-10-30T09:23:41Z</time>
      </trkpt>
      <trkpt lat="45.11486" lon="5.00153">
        <ele>255.26400756836</ele>
        <time>2010-10-30T09:23:50Z</time>
      </trkpt>
      <trkpt lat="45.1156" lon="5.00082">
        <ele>254.81199645996</ele>
        <time>2010-10-30T09:24:00Z</time>
      </trkpt>
      <trkpt lat="45.11605" lon="5.00026">
        <ele>252.35499572754</ele>
        <time>2010-10-30T09:24:07Z</time>
      </trkpt>
      <trkpt lat="45.1166" lon="4.99954">
        <ele>249.91900634766</ele>
        <time>2010-10-30T09:24:15Z</time>
      </trkpt>
      <trkpt lat="45.11707" lon="4.99918">
        <ele>245.52400207519</ele>
        <time>2010-10-30T09:24:20Z</time>
      </trkpt>
      <trkpt lat="45.11761" lon="4.99893">
        <ele>242.67599487305</ele>
        <time>2010-10-30T09:24:25Z</time>
      </trkpt>
      <trkpt lat="45.11845" lon="4.99857">
        <ele>236.66200256348</ele>
        <time>2010-10-30T09:24:32Z</time>
      </trkpt>
      <trkpt lat="45.11891" lon="4.99827">
        <ele>233.91400146484</ele>
        <time>2010-10-30T09:24:36Z</time>
      </trkpt>
      <trkpt lat="45.1193" lon="4.99787">
        <ele>230.21200561523</ele>
        <time>2010-10-30T09:24:40Z</time>
      </trkpt>
      <trkpt lat="45.11969" lon="4.9973">
        <ele>229.31399536133</ele>
        <time>2010-10-30T09:24:45Z</time>
      </trkpt>
      <trkpt lat="45.12005" lon="4.99663">
        <ele>231.15299987793</ele>
        <time>2010-10-30T09:24:51Z</time>
      </trkpt>
      <trkpt lat="45.12045" lon="4.99592">
        <ele>231.98500061035</ele>
        <time>2010-10-30T09:24:58Z</time>
      </trkpt>
      <trkpt lat="45.12092" lon="4.99506">
        <ele>230.13000488281</ele>
        <time>2010-10-30T09:25:07Z</time>
      </trkpt>
      <trkpt lat="45.12134" lon="4.99422">
        <ele>229.09199523926</ele>
        <time>2010-10-30T09:25:15Z</time>
      </trkpt>
      <trkpt lat="45.12154" lon="4.99351">
        <ele>228.31799316406</ele>
        <time>2010-10-30T09:25:21Z</time>
      </trkpt>
      <trkpt lat="45.1218" lon="4.99253">
        <ele>228.75399780273</ele>
        <time>2010-10-30T09:25:30Z</time>
      </trkpt>
      <trkpt lat="45.12203" lon="4.99164">
        <ele>230.00300598144</ele>
        <time>2010-10-30T09:25:39Z</time>
      </trkpt>
      <trkpt lat="45.12223" lon="4.99096">
        <ele>231.44299316406</ele>
        <time>2010-10-30T09:25:47Z</time>
      </trkpt>
      <trkpt lat="45.12226" lon="4.99088">
        <ele>231.73100280762</ele>
        <time>2010-10-30T09:25:48Z</time>
      </trkpt>
      <trkpt lat="45.12238" lon="4.9907">
        <ele>233.36700439453</ele>
        <time>2010-10-30T09:25:51Z</time>
      </trkpt>
      <trkpt lat="45.12241" lon="4.99042">
        <ele>233.35099792481</ele>
        <time>2010-10-30T09:25:55Z</time>
      </trkpt>
      <trkpt lat="45.1223" lon="4.99034">
        <ele>232.7380065918</ele>
        <time>2010-10-30T09:25:57Z</time>
      </trkpt>
      <trkpt lat="45.12207" lon="4.99027">
        <ele>230.87800598144</ele>
        <time>2010-10-30T09:26:00Z</time>
      </trkpt>
      <trkpt lat="45.122" lon="4.99022">
        <ele>230.2619934082</ele>
        <time>2010-10-30T09:26:01Z</time>
      </trkpt>
      <trkpt lat="45.12147" lon="4.98964">
        <ele>226.06599426269</ele>
        <time>2010-10-30T09:26:08Z</time>
      </trkpt>
      <trkpt lat="45.12111" lon="4.98905">
        <ele>225.05700683594</ele>
        <time>2010-10-30T09:26:14Z</time>
      </trkpt>
      <trkpt lat="45.12076" lon="4.98832">
        <ele>224.63400268555</ele>
        <time>2010-10-30T09:26:21Z</time>
      </trkpt>
      <trkpt lat="45.1205" lon="4.98755">
        <ele>222.90100097656</ele>
        <time>2010-10-30T09:26:28Z</time>
      </trkpt>
      <trkpt lat="45.12035" lon="4.98689">
        <ele>223.37899780273</ele>
        <time>2010-10-30T09:26:34Z</time>
      </trkpt>
      <trkpt lat="45.12025" lon="4.98601">
        <ele>222.81599426269</ele>
        <time>2010-10-30T09:26:42Z</time>
      </trkpt>
      <trkpt lat="45.12024" lon="4.98529">
        <ele>221.87800598144</ele>
        <time>2010-10-30T09:26:49Z</time>
      </trkpt>
      <trkpt lat="45.12033" lon="4.9846">
        <ele>223.72500610352</ele>
        <time>2010-10-30T09:26:56Z</time>
      </trkpt>
      <trkpt lat="45.12036" lon="4.9845">
        <ele>223.47399902344</ele>
        <time>2010-10-30T09:26:57Z</time>
      </trkpt>
      <trkpt lat="45.12048" lon="4.98425">
        <ele>223.49499511719</ele>
        <time>2010-10-30T09:27:00Z</time>
      </trkpt>
      <trkpt lat="45.12057" lon="4.98387">
        <ele>224.00300598144</ele>
        <time>2010-10-30T09:27:04Z</time>
      </trkpt>
      <trkpt lat="45.12066" lon="4.98311">
        <ele>222.35400390625</ele>
        <time>2010-10-30T09:27:11Z</time>
      </trkpt>
      <trkpt lat="45.12075" lon="4.98228">
        <ele>221.86000061035</ele>
        <time>2010-10-30T09:27:18Z</time>
      </trkpt>
      <trkpt lat="45.12072" lon="4.98145">
        <ele>221.14900207519</ele>
        <time>2010-10-30T09:27:25Z</time>
      </trkpt>
      <trkpt lat="45.12056" lon="4.98064">
        <ele>219.93899536133</ele>
        <time>2010-10-30T09:27:32Z</time>
      </trkpt>
      <trkpt lat="45.12027" lon="4.97952">
        <ele>218.72300720215</ele>
        <time>2010-10-30T09:27:42Z</time>
      </trkpt>
      <trkpt lat="45.12005" lon="4.97848">
        <ele>217.95399475098</ele>
        <time>2010-10-30T09:27:51Z</time>
      </trkpt>
      <trkpt lat="45.11985" lon="4.97732">
        <ele>217.125</ele>
        <time>2010-10-30T09:28:01Z</time>
      </trkpt>
      <trkpt lat="45.11966" lon="4.97621">
        <ele>217.16400146484</ele>
        <time>2010-10-30T09:28:11Z</time>
      </trkpt>
      <trkpt lat="45.11961" lon="4.97589">
        <ele>217.17199707031</ele>
        <time>2010-10-30T09:28:14Z</time>
      </trkpt>
      <trkpt lat="45.11947" lon="4.97513">
        <ele>216.22900390625</ele>
        <time>2010-10-30T09:28:21Z</time>
      </trkpt>
      <trkpt lat="45.11931" lon="4.97418">
        <ele>215.30400085449</ele>
        <time>2010-10-30T09:28:29Z</time>
      </trkpt>
      <trkpt lat="45.11915" lon="4.97326">
        <ele>214.69099426269</ele>
        <time>2010-10-30T09:28:37Z</time>
      </trkpt>
      <trkpt lat="45.11897" lon="4.9722">
        <ele>215.24299621582</ele>
        <time>2010-10-30T09:28:47Z</time>
      </trkpt>
      <trkpt lat="45.11885" lon="4.97153">
        <ele>215.82200622559</ele>
        <time>2010-10-30T09:28:54Z</time>
      </trkpt>
      <trkpt lat="45.11889" lon="4.97105">
        <ele>217.17799377441</ele>
        <time>2010-10-30T09:28:59Z</time>
      </trkpt>
      <trkpt lat="45.11897" lon="4.97091">
        <ele>217.36999511719</ele>
        <time>2010-10-30T09:29:01Z</time>
      </trkpt>
      <trkpt lat="45.11906" lon="4.97062">
        <ele>217.63200378418</ele>
        <time>2010-10-30T09:29:05Z</time>
      </trkpt>
      <trkpt lat="45.11898" lon="4.97049">
        <ele>217.69000244141</ele>
        <time>2010-10-30T09:29:07Z</time>
      </trkpt>
      <trkpt lat="45.1188" lon="4.97036">
        <ele>217.17999267578</ele>
        <time>2010-10-30T09:29:10Z</time>
      </trkpt>
      <trkpt lat="45.11822" lon="4.96959">
        <ele>217.43099975586</ele>
        <time>2010-10-30T09:29:21Z</time>
      </trkpt>
      <trkpt lat="45.11776" lon="4.96887">
        <ele>216.69099426269</ele>
        <time>2010-10-30T09:29:30Z</time>
      </trkpt>
      <trkpt lat="45.11767" lon="4.9685">
        <ele>216.76499938965</ele>
        <time>2010-10-30T09:29:34Z</time>
      </trkpt>
      <trkpt lat="45.11752" lon="4.96817">
        <ele>216.55400085449</ele>
        <time>2010-10-30T09:29:38Z</time>
      </trkpt>
      <trkpt lat="45.11731" lon="4.96806">
        <ele>216.29499816894</ele>
        <time>2010-10-30T09:29:41Z</time>
      </trkpt>
      <trkpt lat="45.11713" lon="4.96786">
        <ele>216.06500244141</ele>
        <time>2010-10-30T09:29:44Z</time>
      </trkpt>
      <trkpt lat="45.11671" lon="4.96715">
        <ele>214.45300292969</ele>
        <time>2010-10-30T09:29:52Z</time>
      </trkpt>
      <trkpt lat="45.11646" lon="4.96654">
        <ele>213.85299682617</ele>
        <time>2010-10-30T09:29:58Z</time>
      </trkpt>
      <trkpt lat="45.11612" lon="4.96566">
        <ele>213.86700439453</ele>
        <time>2010-10-30T09:30:07Z</time>
      </trkpt>
      <trkpt lat="45.11587" lon="4.96504">
        <ele>214.83399963379</ele>
        <time>2010-10-30T09:30:14Z</time>
      </trkpt>
      <trkpt lat="45.11582" lon="4.96472">
        <ele>215.63200378418</ele>
        <time>2010-10-30T09:30:18Z</time>
      </trkpt>
      <trkpt lat="45.11583" lon="4.96448">
        <ele>216.64399719238</ele>
        <time>2010-10-30T09:30:22Z</time>
      </trkpt>
      <trkpt lat="45.11579" lon="4.96442">
        <ele>217.08799743652</ele>
        <time>2010-10-30T09:30:27Z</time>
      </trkpt>
      <trkpt lat="45.11579" lon="4.96442">
        <ele>216.88999938965</ele>
        <time>2010-10-30T09:30:28Z</time>
      </trkpt>
      <trkpt lat="45.11573" lon="4.96448">
        <ele>216.53300476074</ele>
        <time>2010-10-30T09:31:05Z</time>
      </trkpt>
      <trkpt lat="45.11569" lon="4.96446">
        <ele>216.41700744629</ele>
        <time>2010-10-30T09:31:07Z</time>
      </trkpt>
      <trkpt lat="45.11562" lon="4.96429">
        <ele>216.35800170898</ele>
        <time>2010-10-30T09:31:13Z</time>
      </trkpt>
      <trkpt lat="45.11562" lon="4.96426">
        <ele>216.93699645996</ele>
        <time>2010-10-30T09:31:14Z</time>
      </trkpt>
      <trkpt lat="45.11566" lon="4.9642">
        <ele>217.57400512695</ele>
        <time>2010-10-30T09:31:19Z</time>
      </trkpt>
      <trkpt lat="45.11563" lon="4.96423">
        <ele>217.26499938965</ele>
        <time>2010-10-30T09:31:22Z</time>
      </trkpt>
      <trkpt lat="45.11559" lon="4.96412">
        <ele>216.93400573731</ele>
        <time>2010-10-30T09:31:26Z</time>
      </trkpt>
      <trkpt lat="45.11559" lon="4.96398">
        <ele>217.50799560547</ele>
        <time>2010-10-30T09:31:30Z</time>
      </trkpt>
      <trkpt lat="45.11566" lon="4.96393">
        <ele>218.10800170898</ele>
        <time>2010-10-30T09:31:34Z</time>
      </trkpt>
      <trkpt lat="45.11566" lon="4.96397">
        <ele>217.84599304199</ele>
        <time>2010-10-30T09:31:37Z</time>
      </trkpt>
      <trkpt lat="45.11565" lon="4.96396">
        <ele>217.92500305176</ele>
        <time>2010-10-30T09:31:39Z</time>
      </trkpt>
      <trkpt lat="45.11558" lon="4.96401">
        <ele>217.64799499512</ele>
        <time>2010-10-30T09:32:09Z</time>
      </trkpt>
      <trkpt lat="45.11557" lon="4.96411">
        <ele>216.9640045166</ele>
        <time>2010-10-30T09:32:12Z</time>
      </trkpt>
      <trkpt lat="45.11565" lon="4.96421">
        <ele>217.34700012207</ele>
        <time>2010-10-30T09:32:16Z</time>
      </trkpt>
      <trkpt lat="45.1157" lon="4.96426">
        <ele>217.49499511719</ele>
        <time>2010-10-30T09:32:20Z</time>
      </trkpt>
      <trkpt lat="45.1157" lon="4.96427">
        <ele>217.61099243164</ele>
        <time>2010-10-30T09:32:22Z</time>
      </trkpt>
      <trkpt lat="45.11571" lon="4.96427">
        <ele>217.58399963379</ele>
        <time>2010-10-30T09:32:25Z</time>
      </trkpt>
    </trkseg>
  </trk>
</gpx>